<?xml version="1.0" encoding="UTF-8" standalone="no" ?>
<gpx xmlns="http://www.topografix.com/GPX/1/1" xmlns:xsi="http://www.w3.org/2001/XMLSchema-instance" xsi:schemaLocation="http://www.topografix.com/GPX/1/1 http://www.topografix.com/GPX/1/1/gpx.xsd" version="1.1" creator="VisuGPX - https://www.visugpx.com">
  <metadata>
    <name>Ventoux</name>
    <desc><![CDATA[Départ Rémuzat Col d\'EY, col de Fontaube, col des Aires, Ventoux par Sault, descente sur Malaucène, Vaison la Romaine, dernier col de la croix rouge par Chateauneuf de la Bordette.]]></desc>
  </metadata>
  <trk>
    <name><![CDATA[ACTIVE LOG102021]]></name>
    <trkseg>
      <trkpt lat="44.31271" lon="5.27764">
        <ele>722.685</ele>
        <time>2013-05-06T08:20:20Z</time>
      </trkpt>
      <trkpt lat="44.31271" lon="5.27764">
        <ele>722.777</ele>
        <time>2013-05-06T08:20:44Z</time>
      </trkpt>
      <trkpt lat="44.31271" lon="5.27764">
        <ele>721.742</ele>
        <time>2013-05-06T08:22:07Z</time>
      </trkpt>
      <trkpt lat="44.31271" lon="5.27764">
        <ele>722.453</ele>
        <time>2013-05-06T08:24:46Z</time>
      </trkpt>
      <trkpt lat="44.31271" lon="5.27764">
        <ele>722.526</ele>
        <time>2013-05-06T08:24:53Z</time>
      </trkpt>
      <trkpt lat="44.31271" lon="5.27764">
        <ele>722.872</ele>
        <time>2013-05-06T08:25:14Z</time>
      </trkpt>
      <trkpt lat="44.31271" lon="5.27764">
        <ele>722.147</ele>
        <time>2013-05-06T08:25:30Z</time>
      </trkpt>
      <trkpt lat="44.31271" lon="5.27764">
        <ele>722.245</ele>
        <time>2013-05-06T08:25:46Z</time>
      </trkpt>
      <trkpt lat="44.31271" lon="5.27764">
        <ele>722.279</ele>
        <time>2013-05-06T08:26:09Z</time>
      </trkpt>
      <trkpt lat="44.31271" lon="5.27764">
        <ele>722.127</ele>
        <time>2013-05-06T08:26:18Z</time>
      </trkpt>
      <trkpt lat="44.31274" lon="5.27755">
        <ele>721.208</ele>
        <time>2013-05-06T08:26:25Z</time>
      </trkpt>
      <trkpt lat="44.31258" lon="5.27711">
        <ele>719.011</ele>
        <time>2013-05-06T08:26:32Z</time>
      </trkpt>
      <trkpt lat="44.31249" lon="5.27675">
        <ele>714.847</ele>
        <time>2013-05-06T08:26:36Z</time>
      </trkpt>
      <trkpt lat="44.3124" lon="5.27642">
        <ele>711.837</ele>
        <time>2013-05-06T08:26:39Z</time>
      </trkpt>
      <trkpt lat="44.31234" lon="5.27617">
        <ele>711.067</ele>
        <time>2013-05-06T08:26:41Z</time>
      </trkpt>
      <trkpt lat="44.31221" lon="5.27566">
        <ele>706.283</ele>
        <time>2013-05-06T08:26:45Z</time>
      </trkpt>
      <trkpt lat="44.31207" lon="5.27507">
        <ele>701.925</ele>
        <time>2013-05-06T08:26:49Z</time>
      </trkpt>
      <trkpt lat="44.31191" lon="5.27463">
        <ele>697.423</ele>
        <time>2013-05-06T08:26:52Z</time>
      </trkpt>
      <trkpt lat="44.31185" lon="5.27448">
        <ele>697.523</ele>
        <time>2013-05-06T08:26:53Z</time>
      </trkpt>
      <trkpt lat="44.31157" lon="5.27381">
        <ele>694.517</ele>
        <time>2013-05-06T08:26:58Z</time>
      </trkpt>
      <trkpt lat="44.31143" lon="5.27347">
        <ele>693.937</ele>
        <time>2013-05-06T08:27:01Z</time>
      </trkpt>
      <trkpt lat="44.31131" lon="5.27324">
        <ele>692.199</ele>
        <time>2013-05-06T08:27:04Z</time>
      </trkpt>
      <trkpt lat="44.31118" lon="5.27322">
        <ele>691.191</ele>
        <time>2013-05-06T08:27:08Z</time>
      </trkpt>
      <trkpt lat="44.31117" lon="5.27322">
        <ele>691.11</ele>
        <time>2013-05-06T08:27:09Z</time>
      </trkpt>
      <trkpt lat="44.31124" lon="5.27338">
        <ele>690.268</ele>
        <time>2013-05-06T08:27:12Z</time>
      </trkpt>
      <trkpt lat="44.31135" lon="5.27363">
        <ele>689.04</ele>
        <time>2013-05-06T08:27:15Z</time>
      </trkpt>
      <trkpt lat="44.31153" lon="5.27438">
        <ele>686.211</ele>
        <time>2013-05-06T08:27:22Z</time>
      </trkpt>
      <trkpt lat="44.31164" lon="5.27485">
        <ele>683.095</ele>
        <time>2013-05-06T08:27:26Z</time>
      </trkpt>
      <trkpt lat="44.31168" lon="5.27523">
        <ele>680.685</ele>
        <time>2013-05-06T08:27:29Z</time>
      </trkpt>
      <trkpt lat="44.31172" lon="5.27575">
        <ele>679.669</ele>
        <time>2013-05-06T08:27:33Z</time>
      </trkpt>
      <trkpt lat="44.31168" lon="5.27616">
        <ele>677.746</ele>
        <time>2013-05-06T08:27:36Z</time>
      </trkpt>
      <trkpt lat="44.31166" lon="5.27629">
        <ele>674.823</ele>
        <time>2013-05-06T08:27:37Z</time>
      </trkpt>
      <trkpt lat="44.31158" lon="5.27677">
        <ele>676.927</ele>
        <time>2013-05-06T08:27:41Z</time>
      </trkpt>
      <trkpt lat="44.31149" lon="5.27691">
        <ele>673.99</ele>
        <time>2013-05-06T08:27:44Z</time>
      </trkpt>
      <trkpt lat="44.31135" lon="5.27676">
        <ele>673.879</ele>
        <time>2013-05-06T08:27:47Z</time>
      </trkpt>
      <trkpt lat="44.31125" lon="5.27647">
        <ele>671.954</ele>
        <time>2013-05-06T08:27:50Z</time>
      </trkpt>
      <trkpt lat="44.31095" lon="5.27574">
        <ele>670.477</ele>
        <time>2013-05-06T08:27:57Z</time>
      </trkpt>
      <trkpt lat="44.31083" lon="5.27553">
        <ele>667.771</ele>
        <time>2013-05-06T08:27:59Z</time>
      </trkpt>
      <trkpt lat="44.31035" lon="5.27486">
        <ele>664.215</ele>
        <time>2013-05-06T08:28:07Z</time>
      </trkpt>
      <trkpt lat="44.31028" lon="5.2749">
        <ele>664.022</ele>
        <time>2013-05-06T08:28:08Z</time>
      </trkpt>
      <trkpt lat="44.31004" lon="5.27497">
        <ele>659.813</ele>
        <time>2013-05-06T08:28:11Z</time>
      </trkpt>
      <trkpt lat="44.30997" lon="5.2749">
        <ele>660.748</ele>
        <time>2013-05-06T08:28:12Z</time>
      </trkpt>
      <trkpt lat="44.30973" lon="5.27449">
        <ele>658.884</ele>
        <time>2013-05-06T08:28:16Z</time>
      </trkpt>
      <trkpt lat="44.30965" lon="5.27441">
        <ele>658.167</ele>
        <time>2013-05-06T08:28:17Z</time>
      </trkpt>
      <trkpt lat="44.30948" lon="5.27424">
        <ele>657.208</ele>
        <time>2013-05-06T08:28:19Z</time>
      </trkpt>
      <trkpt lat="44.30933" lon="5.27409">
        <ele>656.695</ele>
        <time>2013-05-06T08:28:21Z</time>
      </trkpt>
      <trkpt lat="44.30911" lon="5.27408">
        <ele>655.182</ele>
        <time>2013-05-06T08:28:24Z</time>
      </trkpt>
      <trkpt lat="44.30898" lon="5.27432">
        <ele>651.202</ele>
        <time>2013-05-06T08:28:27Z</time>
      </trkpt>
      <trkpt lat="44.30876" lon="5.27507">
        <ele>647.445</ele>
        <time>2013-05-06T08:28:33Z</time>
      </trkpt>
      <trkpt lat="44.30867" lon="5.27524">
        <ele>646.618</ele>
        <time>2013-05-06T08:28:35Z</time>
      </trkpt>
      <trkpt lat="44.30855" lon="5.27524">
        <ele>645.284</ele>
        <time>2013-05-06T08:28:37Z</time>
      </trkpt>
      <trkpt lat="44.30849" lon="5.27517">
        <ele>645.357</ele>
        <time>2013-05-06T08:28:38Z</time>
      </trkpt>
      <trkpt lat="44.30842" lon="5.27509">
        <ele>645.122</ele>
        <time>2013-05-06T08:28:39Z</time>
      </trkpt>
      <trkpt lat="44.30828" lon="5.27494">
        <ele>643.373</ele>
        <time>2013-05-06T08:28:41Z</time>
      </trkpt>
      <trkpt lat="44.30784" lon="5.27464">
        <ele>639.493</ele>
        <time>2013-05-06T08:28:46Z</time>
      </trkpt>
      <trkpt lat="44.30774" lon="5.27457">
        <ele>638.795</ele>
        <time>2013-05-06T08:28:47Z</time>
      </trkpt>
      <trkpt lat="44.30753" lon="5.27444">
        <ele>637.399</ele>
        <time>2013-05-06T08:28:49Z</time>
      </trkpt>
      <trkpt lat="44.30704" lon="5.27413">
        <ele>633.756</ele>
        <time>2013-05-06T08:28:54Z</time>
      </trkpt>
      <trkpt lat="44.30683" lon="5.274">
        <ele>632.948</ele>
        <time>2013-05-06T08:28:56Z</time>
      </trkpt>
      <trkpt lat="44.3065" lon="5.27358">
        <ele>630.872</ele>
        <time>2013-05-06T08:29:00Z</time>
      </trkpt>
      <trkpt lat="44.30635" lon="5.2734">
        <ele>630.13</ele>
        <time>2013-05-06T08:29:02Z</time>
      </trkpt>
      <trkpt lat="44.30601" lon="5.27324">
        <ele>626.822</ele>
        <time>2013-05-06T08:29:06Z</time>
      </trkpt>
      <trkpt lat="44.30572" lon="5.27335">
        <ele>623.452</ele>
        <time>2013-05-06T08:29:09Z</time>
      </trkpt>
      <trkpt lat="44.30556" lon="5.27352">
        <ele>620.869</ele>
        <time>2013-05-06T08:29:11Z</time>
      </trkpt>
      <trkpt lat="44.30513" lon="5.27396">
        <ele>617.302</ele>
        <time>2013-05-06T08:29:16Z</time>
      </trkpt>
      <trkpt lat="44.30496" lon="5.27407">
        <ele>617.008</ele>
        <time>2013-05-06T08:29:18Z</time>
      </trkpt>
      <trkpt lat="44.30474" lon="5.27432">
        <ele>615.306</ele>
        <time>2013-05-06T08:29:21Z</time>
      </trkpt>
      <trkpt lat="44.30466" lon="5.2744">
        <ele>615.161</ele>
        <time>2013-05-06T08:29:22Z</time>
      </trkpt>
      <trkpt lat="44.30431" lon="5.27449">
        <ele>611.629</ele>
        <time>2013-05-06T08:29:26Z</time>
      </trkpt>
      <trkpt lat="44.30414" lon="5.27439">
        <ele>610.804</ele>
        <time>2013-05-06T08:29:28Z</time>
      </trkpt>
      <trkpt lat="44.30397" lon="5.27421">
        <ele>609.289</ele>
        <time>2013-05-06T08:29:30Z</time>
      </trkpt>
      <trkpt lat="44.30362" lon="5.27384">
        <ele>604.448</ele>
        <time>2013-05-06T08:29:34Z</time>
      </trkpt>
      <trkpt lat="44.30354" lon="5.27375">
        <ele>604.377</ele>
        <time>2013-05-06T08:29:35Z</time>
      </trkpt>
      <trkpt lat="44.30345" lon="5.27366">
        <ele>603.841</ele>
        <time>2013-05-06T08:29:36Z</time>
      </trkpt>
      <trkpt lat="44.30316" lon="5.27348">
        <ele>602.549</ele>
        <time>2013-05-06T08:29:39Z</time>
      </trkpt>
      <trkpt lat="44.30272" lon="5.27351">
        <ele>601.549</ele>
        <time>2013-05-06T08:29:43Z</time>
      </trkpt>
      <trkpt lat="44.30262" lon="5.27358">
        <ele>600.646</ele>
        <time>2013-05-06T08:29:44Z</time>
      </trkpt>
      <trkpt lat="44.30242" lon="5.2737">
        <ele>599.809</ele>
        <time>2013-05-06T08:29:46Z</time>
      </trkpt>
      <trkpt lat="44.30211" lon="5.2739">
        <ele>597.02</ele>
        <time>2013-05-06T08:29:49Z</time>
      </trkpt>
      <trkpt lat="44.30186" lon="5.27437">
        <ele>595.344</ele>
        <time>2013-05-06T08:29:53Z</time>
      </trkpt>
      <trkpt lat="44.30183" lon="5.27468">
        <ele>594.794</ele>
        <time>2013-05-06T08:29:55Z</time>
      </trkpt>
      <trkpt lat="44.30181" lon="5.275">
        <ele>593.757</ele>
        <time>2013-05-06T08:29:57Z</time>
      </trkpt>
      <trkpt lat="44.3017" lon="5.27531">
        <ele>590.69</ele>
        <time>2013-05-06T08:29:59Z</time>
      </trkpt>
      <trkpt lat="44.30156" lon="5.27556">
        <ele>590.116</ele>
        <time>2013-05-06T08:30:01Z</time>
      </trkpt>
      <trkpt lat="44.30124" lon="5.27598">
        <ele>587.059</ele>
        <time>2013-05-06T08:30:05Z</time>
      </trkpt>
      <trkpt lat="44.30106" lon="5.27655">
        <ele>583.996</ele>
        <time>2013-05-06T08:30:09Z</time>
      </trkpt>
      <trkpt lat="44.30086" lon="5.27748">
        <ele>580.522</ele>
        <time>2013-05-06T08:30:15Z</time>
      </trkpt>
      <trkpt lat="44.30083" lon="5.27763">
        <ele>580.565</ele>
        <time>2013-05-06T08:30:16Z</time>
      </trkpt>
      <trkpt lat="44.30071" lon="5.27819">
        <ele>578.762</ele>
        <time>2013-05-06T08:30:20Z</time>
      </trkpt>
      <trkpt lat="44.30078" lon="5.27869">
        <ele>577.644</ele>
        <time>2013-05-06T08:30:24Z</time>
      </trkpt>
      <trkpt lat="44.30099" lon="5.27901">
        <ele>575.879</ele>
        <time>2013-05-06T08:30:27Z</time>
      </trkpt>
      <trkpt lat="44.30121" lon="5.27954">
        <ele>572.487</ele>
        <time>2013-05-06T08:30:31Z</time>
      </trkpt>
      <trkpt lat="44.30125" lon="5.27968">
        <ele>571.85</ele>
        <time>2013-05-06T08:30:32Z</time>
      </trkpt>
      <trkpt lat="44.30127" lon="5.28019">
        <ele>571.128</ele>
        <time>2013-05-06T08:30:37Z</time>
      </trkpt>
      <trkpt lat="44.30124" lon="5.28029">
        <ele>571.039</ele>
        <time>2013-05-06T08:30:38Z</time>
      </trkpt>
      <trkpt lat="44.30119" lon="5.28071">
        <ele>569.528</ele>
        <time>2013-05-06T08:30:42Z</time>
      </trkpt>
      <trkpt lat="44.3012" lon="5.28082">
        <ele>568.934</ele>
        <time>2013-05-06T08:30:43Z</time>
      </trkpt>
      <trkpt lat="44.30124" lon="5.28105">
        <ele>567.935</ele>
        <time>2013-05-06T08:30:45Z</time>
      </trkpt>
      <trkpt lat="44.3013" lon="5.2816">
        <ele>565.49</ele>
        <time>2013-05-06T08:30:50Z</time>
      </trkpt>
      <trkpt lat="44.30119" lon="5.28189">
        <ele>563.407</ele>
        <time>2013-05-06T08:30:54Z</time>
      </trkpt>
      <trkpt lat="44.30098" lon="5.28225">
        <ele>560.823</ele>
        <time>2013-05-06T08:30:58Z</time>
      </trkpt>
      <trkpt lat="44.30061" lon="5.28284">
        <ele>557.851</ele>
        <time>2013-05-06T08:31:04Z</time>
      </trkpt>
      <trkpt lat="44.30049" lon="5.28347">
        <ele>554.082</ele>
        <time>2013-05-06T08:31:09Z</time>
      </trkpt>
      <trkpt lat="44.30058" lon="5.28404">
        <ele>550.667</ele>
        <time>2013-05-06T08:31:13Z</time>
      </trkpt>
      <trkpt lat="44.30065" lon="5.2845">
        <ele>546.648</ele>
        <time>2013-05-06T08:31:16Z</time>
      </trkpt>
      <trkpt lat="44.30068" lon="5.28465">
        <ele>546.886</ele>
        <time>2013-05-06T08:31:17Z</time>
      </trkpt>
      <trkpt lat="44.3007" lon="5.28479">
        <ele>547.103</ele>
        <time>2013-05-06T08:31:18Z</time>
      </trkpt>
      <trkpt lat="44.30087" lon="5.28527">
        <ele>546.217</ele>
        <time>2013-05-06T08:31:22Z</time>
      </trkpt>
      <trkpt lat="44.30095" lon="5.28565">
        <ele>544.275</ele>
        <time>2013-05-06T08:31:25Z</time>
      </trkpt>
      <trkpt lat="44.30106" lon="5.28592">
        <ele>542.246</ele>
        <time>2013-05-06T08:31:27Z</time>
      </trkpt>
      <trkpt lat="44.30114" lon="5.28643">
        <ele>540.495</ele>
        <time>2013-05-06T08:31:31Z</time>
      </trkpt>
      <trkpt lat="44.30113" lon="5.28656">
        <ele>540.875</ele>
        <time>2013-05-06T08:31:32Z</time>
      </trkpt>
      <trkpt lat="44.30134" lon="5.28703">
        <ele>538.412</ele>
        <time>2013-05-06T08:31:36Z</time>
      </trkpt>
      <trkpt lat="44.3016" lon="5.28716">
        <ele>535.27</ele>
        <time>2013-05-06T08:31:39Z</time>
      </trkpt>
      <trkpt lat="44.30183" lon="5.28726">
        <ele>532.054</ele>
        <time>2013-05-06T08:31:41Z</time>
      </trkpt>
      <trkpt lat="44.30202" lon="5.28746">
        <ele>531.743</ele>
        <time>2013-05-06T08:31:43Z</time>
      </trkpt>
      <trkpt lat="44.30232" lon="5.28796">
        <ele>526.853</ele>
        <time>2013-05-06T08:31:47Z</time>
      </trkpt>
      <trkpt lat="44.30239" lon="5.28809">
        <ele>526.101</ele>
        <time>2013-05-06T08:31:48Z</time>
      </trkpt>
      <trkpt lat="44.30272" lon="5.28897">
        <ele>520.475</ele>
        <time>2013-05-06T08:31:54Z</time>
      </trkpt>
      <trkpt lat="44.30275" lon="5.28913">
        <ele>521.047</ele>
        <time>2013-05-06T08:31:55Z</time>
      </trkpt>
      <trkpt lat="44.30279" lon="5.28929">
        <ele>521.302</ele>
        <time>2013-05-06T08:31:56Z</time>
      </trkpt>
      <trkpt lat="44.30277" lon="5.28978">
        <ele>517.155</ele>
        <time>2013-05-06T08:31:59Z</time>
      </trkpt>
      <trkpt lat="44.30281" lon="5.29033">
        <ele>515.022</ele>
        <time>2013-05-06T08:32:02Z</time>
      </trkpt>
      <trkpt lat="44.30289" lon="5.29087">
        <ele>512.78</ele>
        <time>2013-05-06T08:32:05Z</time>
      </trkpt>
      <trkpt lat="44.30292" lon="5.29104">
        <ele>513.043</ele>
        <time>2013-05-06T08:32:06Z</time>
      </trkpt>
      <trkpt lat="44.30309" lon="5.29144">
        <ele>510.031</ele>
        <time>2013-05-06T08:32:09Z</time>
      </trkpt>
      <trkpt lat="44.30317" lon="5.29156">
        <ele>509.493</ele>
        <time>2013-05-06T08:32:10Z</time>
      </trkpt>
      <trkpt lat="44.30331" lon="5.29198">
        <ele>504.939</ele>
        <time>2013-05-06T08:32:13Z</time>
      </trkpt>
      <trkpt lat="44.30331" lon="5.29215">
        <ele>505.059</ele>
        <time>2013-05-06T08:32:14Z</time>
      </trkpt>
      <trkpt lat="44.30331" lon="5.29232">
        <ele>503.927</ele>
        <time>2013-05-06T08:32:15Z</time>
      </trkpt>
      <trkpt lat="44.30321" lon="5.29279">
        <ele>501.484</ele>
        <time>2013-05-06T08:32:18Z</time>
      </trkpt>
      <trkpt lat="44.30304" lon="5.29299">
        <ele>497.268</ele>
        <time>2013-05-06T08:32:20Z</time>
      </trkpt>
      <trkpt lat="44.30269" lon="5.29308">
        <ele>494.889</ele>
        <time>2013-05-06T08:32:23Z</time>
      </trkpt>
      <trkpt lat="44.30259" lon="5.2931">
        <ele>497.541</ele>
        <time>2013-05-06T08:32:24Z</time>
      </trkpt>
      <trkpt lat="44.30235" lon="5.29312">
        <ele>499.859</ele>
        <time>2013-05-06T08:32:28Z</time>
      </trkpt>
      <trkpt lat="44.30228" lon="5.29289">
        <ele>496.507</ele>
        <time>2013-05-06T08:32:33Z</time>
      </trkpt>
      <trkpt lat="44.30233" lon="5.29256">
        <ele>495.648</ele>
        <time>2013-05-06T08:32:38Z</time>
      </trkpt>
      <trkpt lat="44.30232" lon="5.29247">
        <ele>495.142</ele>
        <time>2013-05-06T08:32:39Z</time>
      </trkpt>
      <trkpt lat="44.30219" lon="5.29215">
        <ele>492.156</ele>
        <time>2013-05-06T08:32:43Z</time>
      </trkpt>
      <trkpt lat="44.30198" lon="5.29165">
        <ele>489.555</ele>
        <time>2013-05-06T08:32:50Z</time>
      </trkpt>
      <trkpt lat="44.30179" lon="5.2912">
        <ele>487.539</ele>
        <time>2013-05-06T08:32:56Z</time>
      </trkpt>
      <trkpt lat="44.30172" lon="5.29107">
        <ele>486.263</ele>
        <time>2013-05-06T08:32:58Z</time>
      </trkpt>
      <trkpt lat="44.30156" lon="5.29075">
        <ele>483.744</ele>
        <time>2013-05-06T08:33:03Z</time>
      </trkpt>
      <trkpt lat="44.30145" lon="5.29036">
        <ele>480.697</ele>
        <time>2013-05-06T08:33:07Z</time>
      </trkpt>
      <trkpt lat="44.30131" lon="5.28989">
        <ele>478.16</ele>
        <time>2013-05-06T08:33:11Z</time>
      </trkpt>
      <trkpt lat="44.30119" lon="5.28935">
        <ele>474.274</ele>
        <time>2013-05-06T08:33:15Z</time>
      </trkpt>
      <trkpt lat="44.30103" lon="5.28881">
        <ele>470.635</ele>
        <time>2013-05-06T08:33:19Z</time>
      </trkpt>
      <trkpt lat="44.30097" lon="5.28836">
        <ele>470.211</ele>
        <time>2013-05-06T08:33:22Z</time>
      </trkpt>
      <trkpt lat="44.30083" lon="5.28811">
        <ele>467.48</ele>
        <time>2013-05-06T08:33:24Z</time>
      </trkpt>
      <trkpt lat="44.30068" lon="5.28786">
        <ele>464.562</ele>
        <time>2013-05-06T08:33:26Z</time>
      </trkpt>
      <trkpt lat="44.30039" lon="5.28732">
        <ele>460.808</ele>
        <time>2013-05-06T08:33:30Z</time>
      </trkpt>
      <trkpt lat="44.30024" lon="5.28705">
        <ele>459.461</ele>
        <time>2013-05-06T08:33:32Z</time>
      </trkpt>
      <trkpt lat="44.3001" lon="5.28677">
        <ele>457.371</ele>
        <time>2013-05-06T08:33:34Z</time>
      </trkpt>
      <trkpt lat="44.2999" lon="5.28635">
        <ele>457.014</ele>
        <time>2013-05-06T08:33:37Z</time>
      </trkpt>
      <trkpt lat="44.29968" lon="5.28622">
        <ele>452.816</ele>
        <time>2013-05-06T08:33:39Z</time>
      </trkpt>
      <trkpt lat="44.29944" lon="5.28604">
        <ele>451.685</ele>
        <time>2013-05-06T08:33:41Z</time>
      </trkpt>
      <trkpt lat="44.29922" lon="5.28583">
        <ele>447.846</ele>
        <time>2013-05-06T08:33:43Z</time>
      </trkpt>
      <trkpt lat="44.29887" lon="5.28534">
        <ele>445.62</ele>
        <time>2013-05-06T08:33:47Z</time>
      </trkpt>
      <trkpt lat="44.2987" lon="5.28509">
        <ele>442.221</ele>
        <time>2013-05-06T08:33:49Z</time>
      </trkpt>
      <trkpt lat="44.29862" lon="5.28497">
        <ele>442.675</ele>
        <time>2013-05-06T08:33:50Z</time>
      </trkpt>
      <trkpt lat="44.29845" lon="5.28471">
        <ele>438.759</ele>
        <time>2013-05-06T08:33:52Z</time>
      </trkpt>
      <trkpt lat="44.29828" lon="5.28447">
        <ele>438.245</ele>
        <time>2013-05-06T08:33:54Z</time>
      </trkpt>
      <trkpt lat="44.29798" lon="5.28419">
        <ele>436.499</ele>
        <time>2013-05-06T08:33:57Z</time>
      </trkpt>
      <trkpt lat="44.29778" lon="5.28401">
        <ele>434.173</ele>
        <time>2013-05-06T08:33:59Z</time>
      </trkpt>
      <trkpt lat="44.29745" lon="5.28368">
        <ele>432.349</ele>
        <time>2013-05-06T08:34:03Z</time>
      </trkpt>
      <trkpt lat="44.2974" lon="5.28331">
        <ele>430.594</ele>
        <time>2013-05-06T08:34:07Z</time>
      </trkpt>
      <trkpt lat="44.29744" lon="5.28321">
        <ele>431.419</ele>
        <time>2013-05-06T08:34:08Z</time>
      </trkpt>
      <trkpt lat="44.29743" lon="5.28271">
        <ele>428.187</ele>
        <time>2013-05-06T08:34:13Z</time>
      </trkpt>
      <trkpt lat="44.29728" lon="5.28257">
        <ele>426.322</ele>
        <time>2013-05-06T08:34:15Z</time>
      </trkpt>
      <trkpt lat="44.29711" lon="5.28244">
        <ele>426.254</ele>
        <time>2013-05-06T08:34:17Z</time>
      </trkpt>
      <trkpt lat="44.29681" lon="5.2823">
        <ele>421.302</ele>
        <time>2013-05-06T08:34:20Z</time>
      </trkpt>
      <trkpt lat="44.2965" lon="5.28215">
        <ele>418.837</ele>
        <time>2013-05-06T08:34:23Z</time>
      </trkpt>
      <trkpt lat="44.29623" lon="5.28202">
        <ele>419.245</ele>
        <time>2013-05-06T08:34:26Z</time>
      </trkpt>
      <trkpt lat="44.2961" lon="5.28203">
        <ele>419.04</ele>
        <time>2013-05-06T08:34:29Z</time>
      </trkpt>
      <trkpt lat="44.29606" lon="5.28215">
        <ele>418.874</ele>
        <time>2013-05-06T08:34:31Z</time>
      </trkpt>
      <trkpt lat="44.29616" lon="5.28222">
        <ele>418.783</ele>
        <time>2013-05-06T08:34:33Z</time>
      </trkpt>
      <trkpt lat="44.29628" lon="5.2823">
        <ele>418.967</ele>
        <time>2013-05-06T08:34:35Z</time>
      </trkpt>
      <trkpt lat="44.29645" lon="5.28247">
        <ele>417.622</ele>
        <time>2013-05-06T08:34:39Z</time>
      </trkpt>
      <trkpt lat="44.29636" lon="5.28258">
        <ele>416.402</ele>
        <time>2013-05-06T08:34:43Z</time>
      </trkpt>
      <trkpt lat="44.29636" lon="5.28258">
        <ele>416.328</ele>
        <time>2013-05-06T08:34:44Z</time>
      </trkpt>
      <trkpt lat="44.29613" lon="5.28245">
        <ele>415.85</ele>
        <time>2013-05-06T08:34:49Z</time>
      </trkpt>
      <trkpt lat="44.29582" lon="5.28217">
        <ele>412.771</ele>
        <time>2013-05-06T08:34:56Z</time>
      </trkpt>
      <trkpt lat="44.29554" lon="5.282">
        <ele>413.064</ele>
        <time>2013-05-06T08:35:01Z</time>
      </trkpt>
      <trkpt lat="44.29508" lon="5.28187">
        <ele>412.763</ele>
        <time>2013-05-06T08:35:09Z</time>
      </trkpt>
      <trkpt lat="44.29474" lon="5.28183">
        <ele>413.046</ele>
        <time>2013-05-06T08:35:15Z</time>
      </trkpt>
      <trkpt lat="44.29454" lon="5.28165">
        <ele>412.744</ele>
        <time>2013-05-06T08:35:20Z</time>
      </trkpt>
      <trkpt lat="44.29449" lon="5.28152">
        <ele>411.87</ele>
        <time>2013-05-06T08:35:22Z</time>
      </trkpt>
      <trkpt lat="44.29436" lon="5.28105">
        <ele>409.256</ele>
        <time>2013-05-06T08:35:28Z</time>
      </trkpt>
      <trkpt lat="44.29432" lon="5.28088">
        <ele>408.882</ele>
        <time>2013-05-06T08:35:30Z</time>
      </trkpt>
      <trkpt lat="44.29425" lon="5.28064">
        <ele>408.293</ele>
        <time>2013-05-06T08:35:33Z</time>
      </trkpt>
      <trkpt lat="44.29412" lon="5.28033">
        <ele>408.075</ele>
        <time>2013-05-06T08:35:38Z</time>
      </trkpt>
      <trkpt lat="44.29383" lon="5.28009">
        <ele>408.282</ele>
        <time>2013-05-06T08:35:44Z</time>
      </trkpt>
      <trkpt lat="44.29352" lon="5.28007">
        <ele>406.109</ele>
        <time>2013-05-06T08:35:49Z</time>
      </trkpt>
      <trkpt lat="44.29346" lon="5.28011">
        <ele>405.126</ele>
        <time>2013-05-06T08:35:50Z</time>
      </trkpt>
      <trkpt lat="44.29276" lon="5.2805">
        <ele>402.83</ele>
        <time>2013-05-06T08:35:59Z</time>
      </trkpt>
      <trkpt lat="44.29217" lon="5.28078">
        <ele>402.318</ele>
        <time>2013-05-06T08:36:07Z</time>
      </trkpt>
      <trkpt lat="44.29154" lon="5.28097">
        <ele>401.147</ele>
        <time>2013-05-06T08:36:16Z</time>
      </trkpt>
      <trkpt lat="44.29097" lon="5.28114">
        <ele>400.243</ele>
        <time>2013-05-06T08:36:24Z</time>
      </trkpt>
      <trkpt lat="44.29048" lon="5.28129">
        <ele>400.191</ele>
        <time>2013-05-06T08:36:31Z</time>
      </trkpt>
      <trkpt lat="44.28967" lon="5.28172">
        <ele>398.106</ele>
        <time>2013-05-06T08:36:43Z</time>
      </trkpt>
      <trkpt lat="44.28881" lon="5.28217">
        <ele>395.887</ele>
        <time>2013-05-06T08:36:55Z</time>
      </trkpt>
      <trkpt lat="44.28813" lon="5.28253">
        <ele>396.985</ele>
        <time>2013-05-06T08:37:05Z</time>
      </trkpt>
      <trkpt lat="44.28759" lon="5.28281">
        <ele>399.987</ele>
        <time>2013-05-06T08:37:14Z</time>
      </trkpt>
      <trkpt lat="44.28711" lon="5.28306">
        <ele>401.066</ele>
        <time>2013-05-06T08:37:23Z</time>
      </trkpt>
      <trkpt lat="44.28668" lon="5.28311">
        <ele>400.032</ele>
        <time>2013-05-06T08:37:30Z</time>
      </trkpt>
      <trkpt lat="44.28641" lon="5.28313">
        <ele>398.539</ele>
        <time>2013-05-06T08:37:34Z</time>
      </trkpt>
      <trkpt lat="44.28627" lon="5.28314">
        <ele>398.167</ele>
        <time>2013-05-06T08:37:36Z</time>
      </trkpt>
      <trkpt lat="44.28602" lon="5.28328">
        <ele>397.083</ele>
        <time>2013-05-06T08:37:40Z</time>
      </trkpt>
      <trkpt lat="44.28559" lon="5.28359">
        <ele>395.913</ele>
        <time>2013-05-06T08:37:47Z</time>
      </trkpt>
      <trkpt lat="44.28517" lon="5.28365">
        <ele>394.752</ele>
        <time>2013-05-06T08:37:53Z</time>
      </trkpt>
      <trkpt lat="44.2845" lon="5.28369">
        <ele>395.32</ele>
        <time>2013-05-06T08:38:03Z</time>
      </trkpt>
      <trkpt lat="44.2839" lon="5.28366">
        <ele>393.422</ele>
        <time>2013-05-06T08:38:12Z</time>
      </trkpt>
      <trkpt lat="44.28344" lon="5.2835">
        <ele>392.037</ele>
        <time>2013-05-06T08:38:18Z</time>
      </trkpt>
      <trkpt lat="44.28291" lon="5.28327">
        <ele>389.473</ele>
        <time>2013-05-06T08:38:25Z</time>
      </trkpt>
      <trkpt lat="44.28236" lon="5.28303">
        <ele>386.142</ele>
        <time>2013-05-06T08:38:32Z</time>
      </trkpt>
      <trkpt lat="44.28159" lon="5.28266">
        <ele>385.166</ele>
        <time>2013-05-06T08:38:42Z</time>
      </trkpt>
      <trkpt lat="44.28101" lon="5.28212">
        <ele>384.825</ele>
        <time>2013-05-06T08:38:51Z</time>
      </trkpt>
      <trkpt lat="44.28097" lon="5.28205">
        <ele>384.588</ele>
        <time>2013-05-06T08:38:52Z</time>
      </trkpt>
      <trkpt lat="44.28083" lon="5.28176">
        <ele>384.213</ele>
        <time>2013-05-06T08:38:56Z</time>
      </trkpt>
      <trkpt lat="44.28047" lon="5.28054">
        <ele>383.427</ele>
        <time>2013-05-06T08:39:09Z</time>
      </trkpt>
      <trkpt lat="44.2802" lon="5.27989">
        <ele>383.107</ele>
        <time>2013-05-06T08:39:17Z</time>
      </trkpt>
      <trkpt lat="44.2799" lon="5.27929">
        <ele>383.503</ele>
        <time>2013-05-06T08:39:25Z</time>
      </trkpt>
      <trkpt lat="44.27959" lon="5.27907">
        <ele>382.591</ele>
        <time>2013-05-06T08:39:30Z</time>
      </trkpt>
      <trkpt lat="44.27916" lon="5.27882">
        <ele>380.666</ele>
        <time>2013-05-06T08:39:36Z</time>
      </trkpt>
      <trkpt lat="44.27872" lon="5.2784">
        <ele>379.561</ele>
        <time>2013-05-06T08:39:43Z</time>
      </trkpt>
      <trkpt lat="44.27819" lon="5.27782">
        <ele>379.28</ele>
        <time>2013-05-06T08:39:52Z</time>
      </trkpt>
      <trkpt lat="44.27759" lon="5.27722">
        <ele>377.647</ele>
        <time>2013-05-06T08:40:02Z</time>
      </trkpt>
      <trkpt lat="44.27695" lon="5.2766">
        <ele>376.656</ele>
        <time>2013-05-06T08:40:13Z</time>
      </trkpt>
      <trkpt lat="44.27658" lon="5.27626">
        <ele>375.899</ele>
        <time>2013-05-06T08:40:20Z</time>
      </trkpt>
      <trkpt lat="44.2764" lon="5.27601">
        <ele>375.82</ele>
        <time>2013-05-06T08:40:24Z</time>
      </trkpt>
      <trkpt lat="44.27641" lon="5.27569">
        <ele>376.108</ele>
        <time>2013-05-06T08:40:29Z</time>
      </trkpt>
      <trkpt lat="44.27644" lon="5.27555">
        <ele>376.3</ele>
        <time>2013-05-06T08:40:31Z</time>
      </trkpt>
      <trkpt lat="44.2765" lon="5.27525">
        <ele>376.821</ele>
        <time>2013-05-06T08:40:35Z</time>
      </trkpt>
      <trkpt lat="44.27656" lon="5.27496">
        <ele>377.713</ele>
        <time>2013-05-06T08:40:40Z</time>
      </trkpt>
      <trkpt lat="44.27659" lon="5.27471">
        <ele>377.76</ele>
        <time>2013-05-06T08:40:44Z</time>
      </trkpt>
      <trkpt lat="44.27661" lon="5.27458">
        <ele>378.807</ele>
        <time>2013-05-06T08:40:46Z</time>
      </trkpt>
      <trkpt lat="44.2766" lon="5.27425">
        <ele>379.499</ele>
        <time>2013-05-06T08:40:51Z</time>
      </trkpt>
      <trkpt lat="44.27657" lon="5.274">
        <ele>379.594</ele>
        <time>2013-05-06T08:40:55Z</time>
      </trkpt>
      <trkpt lat="44.27655" lon="5.27374">
        <ele>379.459</ele>
        <time>2013-05-06T08:40:59Z</time>
      </trkpt>
      <trkpt lat="44.27653" lon="5.2736">
        <ele>379.844</ele>
        <time>2013-05-06T08:41:01Z</time>
      </trkpt>
      <trkpt lat="44.27652" lon="5.27346">
        <ele>379.772</ele>
        <time>2013-05-06T08:41:03Z</time>
      </trkpt>
      <trkpt lat="44.2765" lon="5.27326">
        <ele>379.633</ele>
        <time>2013-05-06T08:41:06Z</time>
      </trkpt>
      <trkpt lat="44.27634" lon="5.27285">
        <ele>379.759</ele>
        <time>2013-05-06T08:41:12Z</time>
      </trkpt>
      <trkpt lat="44.27614" lon="5.27244">
        <ele>378.992</ele>
        <time>2013-05-06T08:41:18Z</time>
      </trkpt>
      <trkpt lat="44.27609" lon="5.2724">
        <ele>379.233</ele>
        <time>2013-05-06T08:41:19Z</time>
      </trkpt>
      <trkpt lat="44.27585" lon="5.27215">
        <ele>378.907</ele>
        <time>2013-05-06T08:41:25Z</time>
      </trkpt>
      <trkpt lat="44.27573" lon="5.27215">
        <ele>378.573</ele>
        <time>2013-05-06T08:41:26Z</time>
      </trkpt>
      <trkpt lat="44.27556" lon="5.27218">
        <ele>376.514</ele>
        <time>2013-05-06T08:41:29Z</time>
      </trkpt>
      <trkpt lat="44.27545" lon="5.27221">
        <ele>376.138</ele>
        <time>2013-05-06T08:41:31Z</time>
      </trkpt>
      <trkpt lat="44.2752" lon="5.27227">
        <ele>375.647</ele>
        <time>2013-05-06T08:41:35Z</time>
      </trkpt>
      <trkpt lat="44.275" lon="5.27224">
        <ele>375.468</ele>
        <time>2013-05-06T08:41:39Z</time>
      </trkpt>
      <trkpt lat="44.27496" lon="5.27208">
        <ele>375.357</ele>
        <time>2013-05-06T08:41:40Z</time>
      </trkpt>
      <trkpt lat="44.27486" lon="5.27177">
        <ele>374.068</ele>
        <time>2013-05-06T08:41:44Z</time>
      </trkpt>
      <trkpt lat="44.27463" lon="5.27111">
        <ele>373.734</ele>
        <time>2013-05-06T08:41:52Z</time>
      </trkpt>
      <trkpt lat="44.27427" lon="5.2703">
        <ele>373.331</ele>
        <time>2013-05-06T08:42:02Z</time>
      </trkpt>
      <trkpt lat="44.27391" lon="5.26949">
        <ele>371.979</ele>
        <time>2013-05-06T08:42:12Z</time>
      </trkpt>
      <trkpt lat="44.27373" lon="5.26909">
        <ele>371.688</ele>
        <time>2013-05-06T08:42:17Z</time>
      </trkpt>
      <trkpt lat="44.27362" lon="5.26886">
        <ele>371.575</ele>
        <time>2013-05-06T08:42:20Z</time>
      </trkpt>
      <trkpt lat="44.27317" lon="5.26826">
        <ele>370.998</ele>
        <time>2013-05-06T08:42:29Z</time>
      </trkpt>
      <trkpt lat="44.27274" lon="5.26781">
        <ele>369.17</ele>
        <time>2013-05-06T08:42:36Z</time>
      </trkpt>
      <trkpt lat="44.27198" lon="5.26704">
        <ele>367.198</ele>
        <time>2013-05-06T08:42:48Z</time>
      </trkpt>
      <trkpt lat="44.27143" lon="5.26649">
        <ele>367.495</ele>
        <time>2013-05-06T08:42:57Z</time>
      </trkpt>
      <trkpt lat="44.27065" lon="5.26571">
        <ele>365.759</ele>
        <time>2013-05-06T08:43:10Z</time>
      </trkpt>
      <trkpt lat="44.26976" lon="5.26484">
        <ele>363.855</ele>
        <time>2013-05-06T08:43:24Z</time>
      </trkpt>
      <trkpt lat="44.26898" lon="5.26409">
        <ele>361.583</ele>
        <time>2013-05-06T08:43:36Z</time>
      </trkpt>
      <trkpt lat="44.26892" lon="5.26402">
        <ele>361.59</ele>
        <time>2013-05-06T08:43:37Z</time>
      </trkpt>
      <trkpt lat="44.2682" lon="5.26334">
        <ele>363.245</ele>
        <time>2013-05-06T08:43:49Z</time>
      </trkpt>
      <trkpt lat="44.26756" lon="5.26283">
        <ele>364.239</ele>
        <time>2013-05-06T08:44:00Z</time>
      </trkpt>
      <trkpt lat="44.26698" lon="5.26237">
        <ele>363.742</ele>
        <time>2013-05-06T08:44:10Z</time>
      </trkpt>
      <trkpt lat="44.26636" lon="5.26207">
        <ele>362.965</ele>
        <time>2013-05-06T08:44:19Z</time>
      </trkpt>
      <trkpt lat="44.26576" lon="5.26176">
        <ele>361.543</ele>
        <time>2013-05-06T08:44:28Z</time>
      </trkpt>
      <trkpt lat="44.2656" lon="5.26168">
        <ele>360.663</ele>
        <time>2013-05-06T08:44:31Z</time>
      </trkpt>
      <trkpt lat="44.26534" lon="5.26155">
        <ele>360.003</ele>
        <time>2013-05-06T08:44:36Z</time>
      </trkpt>
      <trkpt lat="44.2648" lon="5.26138">
        <ele>360.081</ele>
        <time>2013-05-06T08:44:44Z</time>
      </trkpt>
      <trkpt lat="44.26427" lon="5.26149">
        <ele>358.325</ele>
        <time>2013-05-06T08:44:51Z</time>
      </trkpt>
      <trkpt lat="44.26419" lon="5.26151">
        <ele>358.845</ele>
        <time>2013-05-06T08:44:52Z</time>
      </trkpt>
      <trkpt lat="44.26356" lon="5.26167">
        <ele>355.286</ele>
        <time>2013-05-06T08:45:00Z</time>
      </trkpt>
      <trkpt lat="44.26324" lon="5.26175">
        <ele>354.518</ele>
        <time>2013-05-06T08:45:04Z</time>
      </trkpt>
      <trkpt lat="44.26253" lon="5.26188">
        <ele>351.582</ele>
        <time>2013-05-06T08:45:12Z</time>
      </trkpt>
      <trkpt lat="44.2621" lon="5.26173">
        <ele>350.734</ele>
        <time>2013-05-06T08:45:17Z</time>
      </trkpt>
      <trkpt lat="44.2615" lon="5.26131">
        <ele>350.725</ele>
        <time>2013-05-06T08:45:25Z</time>
      </trkpt>
      <trkpt lat="44.26049" lon="5.26064">
        <ele>350.355</ele>
        <time>2013-05-06T08:45:39Z</time>
      </trkpt>
      <trkpt lat="44.25982" lon="5.26033">
        <ele>349.075</ele>
        <time>2013-05-06T08:45:48Z</time>
      </trkpt>
      <trkpt lat="44.25897" lon="5.25993">
        <ele>346.46</ele>
        <time>2013-05-06T08:45:59Z</time>
      </trkpt>
      <trkpt lat="44.25889" lon="5.25988">
        <ele>346.53</ele>
        <time>2013-05-06T08:46:00Z</time>
      </trkpt>
      <trkpt lat="44.25843" lon="5.25935">
        <ele>344.293</ele>
        <time>2013-05-06T08:46:07Z</time>
      </trkpt>
      <trkpt lat="44.25768" lon="5.25832">
        <ele>342.489</ele>
        <time>2013-05-06T08:46:19Z</time>
      </trkpt>
      <trkpt lat="44.25665" lon="5.25695">
        <ele>342.504</ele>
        <time>2013-05-06T08:46:36Z</time>
      </trkpt>
      <trkpt lat="44.25632" lon="5.25652">
        <ele>344.12</ele>
        <time>2013-05-06T08:46:42Z</time>
      </trkpt>
      <trkpt lat="44.25577" lon="5.25583">
        <ele>344.985</ele>
        <time>2013-05-06T08:46:53Z</time>
      </trkpt>
      <trkpt lat="44.25508" lon="5.25508">
        <ele>344.112</ele>
        <time>2013-05-06T08:47:06Z</time>
      </trkpt>
      <trkpt lat="44.25442" lon="5.25455">
        <ele>343.373</ele>
        <time>2013-05-06T08:47:17Z</time>
      </trkpt>
      <trkpt lat="44.25378" lon="5.25421">
        <ele>342.978</ele>
        <time>2013-05-06T08:47:28Z</time>
      </trkpt>
      <trkpt lat="44.25317" lon="5.2551">
        <ele>343.296</ele>
        <time>2013-05-06T08:47:44Z</time>
      </trkpt>
      <trkpt lat="44.25308" lon="5.2552">
        <ele>343.516</ele>
        <time>2013-05-06T08:47:46Z</time>
      </trkpt>
      <trkpt lat="44.25273" lon="5.25545">
        <ele>342.864</ele>
        <time>2013-05-06T08:47:53Z</time>
      </trkpt>
      <trkpt lat="44.25228" lon="5.25561">
        <ele>342.485</ele>
        <time>2013-05-06T08:48:01Z</time>
      </trkpt>
      <trkpt lat="44.25177" lon="5.25571">
        <ele>343.32</ele>
        <time>2013-05-06T08:48:10Z</time>
      </trkpt>
      <trkpt lat="44.25137" lon="5.25553">
        <ele>343.221</ele>
        <time>2013-05-06T08:48:18Z</time>
      </trkpt>
      <trkpt lat="44.25106" lon="5.25538">
        <ele>344.479</ele>
        <time>2013-05-06T08:48:24Z</time>
      </trkpt>
      <trkpt lat="44.25085" lon="5.25529">
        <ele>344.46</ele>
        <time>2013-05-06T08:48:28Z</time>
      </trkpt>
      <trkpt lat="44.25065" lon="5.25528">
        <ele>344.248</ele>
        <time>2013-05-06T08:48:32Z</time>
      </trkpt>
      <trkpt lat="44.25018" lon="5.25551">
        <ele>345.334</ele>
        <time>2013-05-06T08:48:42Z</time>
      </trkpt>
      <trkpt lat="44.24988" lon="5.2558">
        <ele>346.676</ele>
        <time>2013-05-06T08:48:49Z</time>
      </trkpt>
      <trkpt lat="44.24986" lon="5.25585">
        <ele>346.72</ele>
        <time>2013-05-06T08:48:50Z</time>
      </trkpt>
      <trkpt lat="44.2497" lon="5.25628">
        <ele>347.931</ele>
        <time>2013-05-06T08:48:57Z</time>
      </trkpt>
      <trkpt lat="44.24962" lon="5.25672">
        <ele>347.933</ele>
        <time>2013-05-06T08:49:04Z</time>
      </trkpt>
      <trkpt lat="44.24955" lon="5.25727">
        <ele>348.351</ele>
        <time>2013-05-06T08:49:13Z</time>
      </trkpt>
      <trkpt lat="44.24949" lon="5.25778">
        <ele>348.782</ele>
        <time>2013-05-06T08:49:22Z</time>
      </trkpt>
      <trkpt lat="44.24945" lon="5.25815">
        <ele>349.142</ele>
        <time>2013-05-06T08:49:29Z</time>
      </trkpt>
      <trkpt lat="44.24937" lon="5.25885">
        <ele>349.518</ele>
        <time>2013-05-06T08:49:41Z</time>
      </trkpt>
      <trkpt lat="44.2493" lon="5.25943">
        <ele>350.588</ele>
        <time>2013-05-06T08:49:52Z</time>
      </trkpt>
      <trkpt lat="44.24923" lon="5.26001">
        <ele>350.782</ele>
        <time>2013-05-06T08:50:03Z</time>
      </trkpt>
      <trkpt lat="44.24918" lon="5.26044">
        <ele>352.325</ele>
        <time>2013-05-06T08:50:11Z</time>
      </trkpt>
      <trkpt lat="44.24911" lon="5.26101">
        <ele>353.264</ele>
        <time>2013-05-06T08:50:21Z</time>
      </trkpt>
      <trkpt lat="44.24905" lon="5.26143">
        <ele>354.236</ele>
        <time>2013-05-06T08:50:30Z</time>
      </trkpt>
      <trkpt lat="44.24903" lon="5.26158">
        <ele>353.812</ele>
        <time>2013-05-06T08:50:33Z</time>
      </trkpt>
      <trkpt lat="44.24898" lon="5.26182">
        <ele>355.121</ele>
        <time>2013-05-06T08:50:37Z</time>
      </trkpt>
      <trkpt lat="44.24892" lon="5.2621">
        <ele>355.541</ele>
        <time>2013-05-06T08:50:42Z</time>
      </trkpt>
      <trkpt lat="44.24879" lon="5.26263">
        <ele>356.16</ele>
        <time>2013-05-06T08:50:51Z</time>
      </trkpt>
      <trkpt lat="44.24878" lon="5.26268">
        <ele>356.252</ele>
        <time>2013-05-06T08:50:52Z</time>
      </trkpt>
      <trkpt lat="44.24866" lon="5.26315">
        <ele>356.455</ele>
        <time>2013-05-06T08:51:00Z</time>
      </trkpt>
      <trkpt lat="44.24846" lon="5.26361">
        <ele>356.793</ele>
        <time>2013-05-06T08:51:09Z</time>
      </trkpt>
      <trkpt lat="44.24821" lon="5.2642">
        <ele>357.432</ele>
        <time>2013-05-06T08:51:20Z</time>
      </trkpt>
      <trkpt lat="44.24801" lon="5.26467">
        <ele>358.484</ele>
        <time>2013-05-06T08:51:29Z</time>
      </trkpt>
      <trkpt lat="44.24799" lon="5.26472">
        <ele>358.621</ele>
        <time>2013-05-06T08:51:30Z</time>
      </trkpt>
      <trkpt lat="44.24787" lon="5.265">
        <ele>359.188</ele>
        <time>2013-05-06T08:51:36Z</time>
      </trkpt>
      <trkpt lat="44.24784" lon="5.2651">
        <ele>359.72</ele>
        <time>2013-05-06T08:51:38Z</time>
      </trkpt>
      <trkpt lat="44.24766" lon="5.26563">
        <ele>361.141</ele>
        <time>2013-05-06T08:51:49Z</time>
      </trkpt>
      <trkpt lat="44.24746" lon="5.26622">
        <ele>362.957</ele>
        <time>2013-05-06T08:52:01Z</time>
      </trkpt>
      <trkpt lat="44.24727" lon="5.26678">
        <ele>364.147</ele>
        <time>2013-05-06T08:52:12Z</time>
      </trkpt>
      <trkpt lat="44.24707" lon="5.26725">
        <ele>365.432</ele>
        <time>2013-05-06T08:52:22Z</time>
      </trkpt>
      <trkpt lat="44.24693" lon="5.26753">
        <ele>366.514</ele>
        <time>2013-05-06T08:52:29Z</time>
      </trkpt>
      <trkpt lat="44.24675" lon="5.26792">
        <ele>368.427</ele>
        <time>2013-05-06T08:52:37Z</time>
      </trkpt>
      <trkpt lat="44.24658" lon="5.26828">
        <ele>369.462</ele>
        <time>2013-05-06T08:52:44Z</time>
      </trkpt>
      <trkpt lat="44.24631" lon="5.26886">
        <ele>370.565</ele>
        <time>2013-05-06T08:52:55Z</time>
      </trkpt>
      <trkpt lat="44.24606" lon="5.26938">
        <ele>371.076</ele>
        <time>2013-05-06T08:53:05Z</time>
      </trkpt>
      <trkpt lat="44.24587" lon="5.2698">
        <ele>371.03</ele>
        <time>2013-05-06T08:53:13Z</time>
      </trkpt>
      <trkpt lat="44.24554" lon="5.27051">
        <ele>371.848</ele>
        <time>2013-05-06T08:53:26Z</time>
      </trkpt>
      <trkpt lat="44.24527" lon="5.27114">
        <ele>372.487</ele>
        <time>2013-05-06T08:53:37Z</time>
      </trkpt>
      <trkpt lat="44.24501" lon="5.27174">
        <ele>372.975</ele>
        <time>2013-05-06T08:53:47Z</time>
      </trkpt>
      <trkpt lat="44.2448" lon="5.27239">
        <ele>372.816</ele>
        <time>2013-05-06T08:53:57Z</time>
      </trkpt>
      <trkpt lat="44.24462" lon="5.27307">
        <ele>374.538</ele>
        <time>2013-05-06T08:54:07Z</time>
      </trkpt>
      <trkpt lat="44.24445" lon="5.27354">
        <ele>374.899</ele>
        <time>2013-05-06T08:54:14Z</time>
      </trkpt>
      <trkpt lat="44.24412" lon="5.27404">
        <ele>373.999</ele>
        <time>2013-05-06T08:54:22Z</time>
      </trkpt>
      <trkpt lat="44.24375" lon="5.2746">
        <ele>373.811</ele>
        <time>2013-05-06T08:54:31Z</time>
      </trkpt>
      <trkpt lat="44.2433" lon="5.27528">
        <ele>374.61</ele>
        <time>2013-05-06T08:54:42Z</time>
      </trkpt>
      <trkpt lat="44.24325" lon="5.27534">
        <ele>375.117</ele>
        <time>2013-05-06T08:54:43Z</time>
      </trkpt>
      <trkpt lat="44.24287" lon="5.27554">
        <ele>374.345</ele>
        <time>2013-05-06T08:54:50Z</time>
      </trkpt>
      <trkpt lat="44.2428" lon="5.27555">
        <ele>374.287</ele>
        <time>2013-05-06T08:54:51Z</time>
      </trkpt>
      <trkpt lat="44.24211" lon="5.27562">
        <ele>375.471</ele>
        <time>2013-05-06T08:55:02Z</time>
      </trkpt>
      <trkpt lat="44.24163" lon="5.27598">
        <ele>375.547</ele>
        <time>2013-05-06T08:55:11Z</time>
      </trkpt>
      <trkpt lat="44.24138" lon="5.27632">
        <ele>375.886</ele>
        <time>2013-05-06T08:55:17Z</time>
      </trkpt>
      <trkpt lat="44.24126" lon="5.27652">
        <ele>375.723</ele>
        <time>2013-05-06T08:55:20Z</time>
      </trkpt>
      <trkpt lat="44.24109" lon="5.27713">
        <ele>375.234</ele>
        <time>2013-05-06T08:55:30Z</time>
      </trkpt>
      <trkpt lat="44.24088" lon="5.27787">
        <ele>375.737</ele>
        <time>2013-05-06T08:55:37Z</time>
      </trkpt>
      <trkpt lat="44.24069" lon="5.27868">
        <ele>378.17</ele>
        <time>2013-05-06T08:55:48Z</time>
      </trkpt>
      <trkpt lat="44.24057" lon="5.27913">
        <ele>378.966</ele>
        <time>2013-05-06T08:55:55Z</time>
      </trkpt>
      <trkpt lat="44.24046" lon="5.27962">
        <ele>379.897</ele>
        <time>2013-05-06T08:56:02Z</time>
      </trkpt>
      <trkpt lat="44.2404" lon="5.27983">
        <ele>379.924</ele>
        <time>2013-05-06T08:56:05Z</time>
      </trkpt>
      <trkpt lat="44.24027" lon="5.28004">
        <ele>380.217</ele>
        <time>2013-05-06T08:56:09Z</time>
      </trkpt>
      <trkpt lat="44.23996" lon="5.28031">
        <ele>381.149</ele>
        <time>2013-05-06T08:56:16Z</time>
      </trkpt>
      <trkpt lat="44.23974" lon="5.2805">
        <ele>381.538</ele>
        <time>2013-05-06T08:56:21Z</time>
      </trkpt>
      <trkpt lat="44.23953" lon="5.28068">
        <ele>381.434</ele>
        <time>2013-05-06T08:56:25Z</time>
      </trkpt>
      <trkpt lat="44.2391" lon="5.28098">
        <ele>382.723</ele>
        <time>2013-05-06T08:56:34Z</time>
      </trkpt>
      <trkpt lat="44.23887" lon="5.28115">
        <ele>384.403</ele>
        <time>2013-05-06T08:56:39Z</time>
      </trkpt>
      <trkpt lat="44.23875" lon="5.28153">
        <ele>385.647</ele>
        <time>2013-05-06T08:56:45Z</time>
      </trkpt>
      <trkpt lat="44.23871" lon="5.28192">
        <ele>386.651</ele>
        <time>2013-05-06T08:56:51Z</time>
      </trkpt>
      <trkpt lat="44.23869" lon="5.28214">
        <ele>387.991</ele>
        <time>2013-05-06T08:56:55Z</time>
      </trkpt>
      <trkpt lat="44.23857" lon="5.28251">
        <ele>389.125</ele>
        <time>2013-05-06T08:57:02Z</time>
      </trkpt>
      <trkpt lat="44.23842" lon="5.28287">
        <ele>390.18</ele>
        <time>2013-05-06T08:57:09Z</time>
      </trkpt>
      <trkpt lat="44.23827" lon="5.28324">
        <ele>392.164</ele>
        <time>2013-05-06T08:57:17Z</time>
      </trkpt>
      <trkpt lat="44.23812" lon="5.28359">
        <ele>394.072</ele>
        <time>2013-05-06T08:57:25Z</time>
      </trkpt>
      <trkpt lat="44.23793" lon="5.28403">
        <ele>395.498</ele>
        <time>2013-05-06T08:57:33Z</time>
      </trkpt>
      <trkpt lat="44.23778" lon="5.28436">
        <ele>397.041</ele>
        <time>2013-05-06T08:57:39Z</time>
      </trkpt>
      <trkpt lat="44.23766" lon="5.2846">
        <ele>397.408</ele>
        <time>2013-05-06T08:57:44Z</time>
      </trkpt>
      <trkpt lat="44.23746" lon="5.28486">
        <ele>398.014</ele>
        <time>2013-05-06T08:57:50Z</time>
      </trkpt>
      <trkpt lat="44.23721" lon="5.28518">
        <ele>398.947</ele>
        <time>2013-05-06T08:57:57Z</time>
      </trkpt>
      <trkpt lat="44.23681" lon="5.28571">
        <ele>398.88</ele>
        <time>2013-05-06T08:58:07Z</time>
      </trkpt>
      <trkpt lat="44.23651" lon="5.28604">
        <ele>397.484</ele>
        <time>2013-05-06T08:58:14Z</time>
      </trkpt>
      <trkpt lat="44.23627" lon="5.28608">
        <ele>397.681</ele>
        <time>2013-05-06T08:58:19Z</time>
      </trkpt>
      <trkpt lat="44.23563" lon="5.28599">
        <ele>399.089</ele>
        <time>2013-05-06T08:58:31Z</time>
      </trkpt>
      <trkpt lat="44.23519" lon="5.28622">
        <ele>399.912</ele>
        <time>2013-05-06T08:58:40Z</time>
      </trkpt>
      <trkpt lat="44.23488" lon="5.28648">
        <ele>401.584</ele>
        <time>2013-05-06T08:58:47Z</time>
      </trkpt>
      <trkpt lat="44.23433" lon="5.28694">
        <ele>402.901</ele>
        <time>2013-05-06T08:58:59Z</time>
      </trkpt>
      <trkpt lat="44.23418" lon="5.28715">
        <ele>402.712</ele>
        <time>2013-05-06T08:59:03Z</time>
      </trkpt>
      <trkpt lat="44.23381" lon="5.28784">
        <ele>403.449</ele>
        <time>2013-05-06T08:59:14Z</time>
      </trkpt>
      <trkpt lat="44.23367" lon="5.28812">
        <ele>402.742</ele>
        <time>2013-05-06T08:59:18Z</time>
      </trkpt>
      <trkpt lat="44.23349" lon="5.2885">
        <ele>403.052</ele>
        <time>2013-05-06T08:59:24Z</time>
      </trkpt>
      <trkpt lat="44.2333" lon="5.2889">
        <ele>402.313</ele>
        <time>2013-05-06T08:59:30Z</time>
      </trkpt>
      <trkpt lat="44.23301" lon="5.28949">
        <ele>403.006</ele>
        <time>2013-05-06T08:59:38Z</time>
      </trkpt>
      <trkpt lat="44.23268" lon="5.29018">
        <ele>404.165</ele>
        <time>2013-05-06T08:59:48Z</time>
      </trkpt>
      <trkpt lat="44.23235" lon="5.29086">
        <ele>405.089</ele>
        <time>2013-05-06T08:59:58Z</time>
      </trkpt>
      <trkpt lat="44.23216" lon="5.29135">
        <ele>406.132</ele>
        <time>2013-05-06T09:00:05Z</time>
      </trkpt>
      <trkpt lat="44.23196" lon="5.29193">
        <ele>407.814</ele>
        <time>2013-05-06T09:00:13Z</time>
      </trkpt>
      <trkpt lat="44.23177" lon="5.29247">
        <ele>408.813</ele>
        <time>2013-05-06T09:00:20Z</time>
      </trkpt>
      <trkpt lat="44.2316" lon="5.29306">
        <ele>410.242</ele>
        <time>2013-05-06T09:00:28Z</time>
      </trkpt>
      <trkpt lat="44.23153" lon="5.29377">
        <ele>411.768</ele>
        <time>2013-05-06T09:00:38Z</time>
      </trkpt>
      <trkpt lat="44.23148" lon="5.29433">
        <ele>413.203</ele>
        <time>2013-05-06T09:00:46Z</time>
      </trkpt>
      <trkpt lat="44.23135" lon="5.295">
        <ele>413.902</ele>
        <time>2013-05-06T09:00:56Z</time>
      </trkpt>
      <trkpt lat="44.23117" lon="5.2954">
        <ele>415.03</ele>
        <time>2013-05-06T09:01:03Z</time>
      </trkpt>
      <trkpt lat="44.23111" lon="5.29561">
        <ele>415.236</ele>
        <time>2013-05-06T09:01:06Z</time>
      </trkpt>
      <trkpt lat="44.2311" lon="5.29584">
        <ele>415.345</ele>
        <time>2013-05-06T09:01:09Z</time>
      </trkpt>
      <trkpt lat="44.23117" lon="5.29645">
        <ele>415.475</ele>
        <time>2013-05-06T09:01:16Z</time>
      </trkpt>
      <trkpt lat="44.23107" lon="5.29689">
        <ele>415.199</ele>
        <time>2013-05-06T09:01:21Z</time>
      </trkpt>
      <trkpt lat="44.23104" lon="5.29695">
        <ele>415.73</ele>
        <time>2013-05-06T09:01:22Z</time>
      </trkpt>
      <trkpt lat="44.23065" lon="5.29754">
        <ele>418.572</ele>
        <time>2013-05-06T09:01:32Z</time>
      </trkpt>
      <trkpt lat="44.2304" lon="5.29791">
        <ele>419.542</ele>
        <time>2013-05-06T09:01:39Z</time>
      </trkpt>
      <trkpt lat="44.23018" lon="5.29835">
        <ele>420.925</ele>
        <time>2013-05-06T09:01:47Z</time>
      </trkpt>
      <trkpt lat="44.22996" lon="5.29886">
        <ele>421.439</ele>
        <time>2013-05-06T09:01:55Z</time>
      </trkpt>
      <trkpt lat="44.22965" lon="5.29897">
        <ele>420.444</ele>
        <time>2013-05-06T09:02:01Z</time>
      </trkpt>
      <trkpt lat="44.22953" lon="5.29897">
        <ele>421.491</ele>
        <time>2013-05-06T09:02:03Z</time>
      </trkpt>
      <trkpt lat="44.2288" lon="5.29897">
        <ele>420.475</ele>
        <time>2013-05-06T09:02:15Z</time>
      </trkpt>
      <trkpt lat="44.22851" lon="5.29897">
        <ele>421.809</ele>
        <time>2013-05-06T09:02:20Z</time>
      </trkpt>
      <trkpt lat="44.22819" lon="5.29912">
        <ele>423.576</ele>
        <time>2013-05-06T09:02:27Z</time>
      </trkpt>
      <trkpt lat="44.22815" lon="5.29917">
        <ele>424.1</ele>
        <time>2013-05-06T09:02:28Z</time>
      </trkpt>
      <trkpt lat="44.22778" lon="5.29979">
        <ele>426.862</ele>
        <time>2013-05-06T09:02:39Z</time>
      </trkpt>
      <trkpt lat="44.22737" lon="5.3005">
        <ele>429.308</ele>
        <time>2013-05-06T09:02:53Z</time>
      </trkpt>
      <trkpt lat="44.22711" lon="5.30096">
        <ele>430.221</ele>
        <time>2013-05-06T09:03:01Z</time>
      </trkpt>
      <trkpt lat="44.22684" lon="5.30142">
        <ele>431.768</ele>
        <time>2013-05-06T09:03:09Z</time>
      </trkpt>
      <trkpt lat="44.22655" lon="5.30193">
        <ele>432.84</ele>
        <time>2013-05-06T09:03:18Z</time>
      </trkpt>
      <trkpt lat="44.2262" lon="5.30253">
        <ele>434.736</ele>
        <time>2013-05-06T09:03:29Z</time>
      </trkpt>
      <trkpt lat="44.22597" lon="5.30293">
        <ele>436.83</ele>
        <time>2013-05-06T09:03:37Z</time>
      </trkpt>
      <trkpt lat="44.22578" lon="5.30314">
        <ele>437.458</ele>
        <time>2013-05-06T09:03:43Z</time>
      </trkpt>
      <trkpt lat="44.2256" lon="5.30334">
        <ele>437.47</ele>
        <time>2013-05-06T09:03:50Z</time>
      </trkpt>
      <trkpt lat="44.22556" lon="5.30337">
        <ele>438.19</ele>
        <time>2013-05-06T09:03:56Z</time>
      </trkpt>
      <trkpt lat="44.22556" lon="5.30337">
        <ele>437.863</ele>
        <time>2013-05-06T09:04:36Z</time>
      </trkpt>
      <trkpt lat="44.22556" lon="5.30337">
        <ele>437.697</ele>
        <time>2013-05-06T09:05:21Z</time>
      </trkpt>
      <trkpt lat="44.22556" lon="5.30337">
        <ele>437.094</ele>
        <time>2013-05-06T09:05:49Z</time>
      </trkpt>
      <trkpt lat="44.22556" lon="5.30337">
        <ele>437.147</ele>
        <time>2013-05-06T09:05:59Z</time>
      </trkpt>
      <trkpt lat="44.22544" lon="5.30342">
        <ele>438.022</ele>
        <time>2013-05-06T09:06:06Z</time>
      </trkpt>
      <trkpt lat="44.22527" lon="5.3035">
        <ele>438.018</ele>
        <time>2013-05-06T09:06:12Z</time>
      </trkpt>
      <trkpt lat="44.22505" lon="5.30355">
        <ele>439.714</ele>
        <time>2013-05-06T09:06:19Z</time>
      </trkpt>
      <trkpt lat="44.22472" lon="5.3035">
        <ele>441.378</ele>
        <time>2013-05-06T09:06:31Z</time>
      </trkpt>
      <trkpt lat="44.22446" lon="5.30354">
        <ele>441.53</ele>
        <time>2013-05-06T09:06:40Z</time>
      </trkpt>
      <trkpt lat="44.22429" lon="5.30382">
        <ele>441.625</ele>
        <time>2013-05-06T09:06:49Z</time>
      </trkpt>
      <trkpt lat="44.22435" lon="5.30422">
        <ele>442.08</ele>
        <time>2013-05-06T09:06:57Z</time>
      </trkpt>
      <trkpt lat="44.22436" lon="5.30427">
        <ele>442.379</ele>
        <time>2013-05-06T09:06:58Z</time>
      </trkpt>
      <trkpt lat="44.22447" lon="5.30464">
        <ele>443.353</ele>
        <time>2013-05-06T09:07:07Z</time>
      </trkpt>
      <trkpt lat="44.22458" lon="5.30501">
        <ele>444.857</ele>
        <time>2013-05-06T09:07:16Z</time>
      </trkpt>
      <trkpt lat="44.22472" lon="5.3055">
        <ele>445.023</ele>
        <time>2013-05-06T09:07:27Z</time>
      </trkpt>
      <trkpt lat="44.22473" lon="5.30582">
        <ele>445.42</ele>
        <time>2013-05-06T09:07:34Z</time>
      </trkpt>
      <trkpt lat="44.2246" lon="5.30611">
        <ele>447.169</ele>
        <time>2013-05-06T09:07:41Z</time>
      </trkpt>
      <trkpt lat="44.22436" lon="5.30627">
        <ele>448.035</ele>
        <time>2013-05-06T09:07:48Z</time>
      </trkpt>
      <trkpt lat="44.22399" lon="5.30642">
        <ele>450.111</ele>
        <time>2013-05-06T09:07:58Z</time>
      </trkpt>
      <trkpt lat="44.22372" lon="5.30654">
        <ele>450.687</ele>
        <time>2013-05-06T09:08:05Z</time>
      </trkpt>
      <trkpt lat="44.22348" lon="5.30673">
        <ele>451.132</ele>
        <time>2013-05-06T09:08:12Z</time>
      </trkpt>
      <trkpt lat="44.2235" lon="5.30708">
        <ele>451.86</ele>
        <time>2013-05-06T09:08:18Z</time>
      </trkpt>
      <trkpt lat="44.22355" lon="5.30717">
        <ele>451.995</ele>
        <time>2013-05-06T09:08:20Z</time>
      </trkpt>
      <trkpt lat="44.22359" lon="5.30727">
        <ele>452.125</ele>
        <time>2013-05-06T09:08:22Z</time>
      </trkpt>
      <trkpt lat="44.22364" lon="5.30759">
        <ele>452.871</ele>
        <time>2013-05-06T09:08:28Z</time>
      </trkpt>
      <trkpt lat="44.22351" lon="5.30771">
        <ele>454.747</ele>
        <time>2013-05-06T09:08:32Z</time>
      </trkpt>
      <trkpt lat="44.22343" lon="5.30774">
        <ele>454.483</ele>
        <time>2013-05-06T09:08:34Z</time>
      </trkpt>
      <trkpt lat="44.2229" lon="5.30794">
        <ele>455.835</ele>
        <time>2013-05-06T09:08:47Z</time>
      </trkpt>
      <trkpt lat="44.22253" lon="5.30808">
        <ele>456.382</ele>
        <time>2013-05-06T09:08:56Z</time>
      </trkpt>
      <trkpt lat="44.2222" lon="5.30822">
        <ele>457.565</ele>
        <time>2013-05-06T09:09:04Z</time>
      </trkpt>
      <trkpt lat="44.222" lon="5.30848">
        <ele>458.702</ele>
        <time>2013-05-06T09:09:11Z</time>
      </trkpt>
      <trkpt lat="44.22175" lon="5.30897">
        <ele>461.46</ele>
        <time>2013-05-06T09:09:21Z</time>
      </trkpt>
      <trkpt lat="44.22147" lon="5.30925">
        <ele>463.654</ele>
        <time>2013-05-06T09:09:30Z</time>
      </trkpt>
      <trkpt lat="44.22116" lon="5.30945">
        <ele>465.189</ele>
        <time>2013-05-06T09:09:39Z</time>
      </trkpt>
      <trkpt lat="44.22089" lon="5.30952">
        <ele>466.617</ele>
        <time>2013-05-06T09:09:47Z</time>
      </trkpt>
      <trkpt lat="44.2206" lon="5.30941">
        <ele>468.326</ele>
        <time>2013-05-06T09:09:55Z</time>
      </trkpt>
      <trkpt lat="44.22031" lon="5.30927">
        <ele>469.459</ele>
        <time>2013-05-06T09:10:03Z</time>
      </trkpt>
      <trkpt lat="44.21993" lon="5.30907">
        <ele>469.948</ele>
        <time>2013-05-06T09:10:13Z</time>
      </trkpt>
      <trkpt lat="44.21963" lon="5.30884">
        <ele>471.437</ele>
        <time>2013-05-06T09:10:22Z</time>
      </trkpt>
      <trkpt lat="44.21941" lon="5.30867">
        <ele>472.31</ele>
        <time>2013-05-06T09:10:29Z</time>
      </trkpt>
      <trkpt lat="44.21915" lon="5.30857">
        <ele>472.737</ele>
        <time>2013-05-06T09:10:36Z</time>
      </trkpt>
      <trkpt lat="44.21901" lon="5.30851">
        <ele>473.864</ele>
        <time>2013-05-06T09:10:40Z</time>
      </trkpt>
      <trkpt lat="44.21872" lon="5.3084">
        <ele>474.57</ele>
        <time>2013-05-06T09:10:48Z</time>
      </trkpt>
      <trkpt lat="44.2185" lon="5.30821">
        <ele>474.822</ele>
        <time>2013-05-06T09:10:55Z</time>
      </trkpt>
      <trkpt lat="44.21841" lon="5.30792">
        <ele>476.903</ele>
        <time>2013-05-06T09:11:01Z</time>
      </trkpt>
      <trkpt lat="44.21828" lon="5.30768">
        <ele>478.706</ele>
        <time>2013-05-06T09:11:07Z</time>
      </trkpt>
      <trkpt lat="44.21814" lon="5.30761">
        <ele>479.916</ele>
        <time>2013-05-06T09:11:11Z</time>
      </trkpt>
      <trkpt lat="44.21792" lon="5.30751">
        <ele>481.395</ele>
        <time>2013-05-06T09:11:17Z</time>
      </trkpt>
      <trkpt lat="44.21758" lon="5.30748">
        <ele>481.747</ele>
        <time>2013-05-06T09:11:26Z</time>
      </trkpt>
      <trkpt lat="44.21751" lon="5.3075">
        <ele>481.565</ele>
        <time>2013-05-06T09:11:28Z</time>
      </trkpt>
      <trkpt lat="44.21745" lon="5.30783">
        <ele>482.696</ele>
        <time>2013-05-06T09:11:34Z</time>
      </trkpt>
      <trkpt lat="44.21746" lon="5.30825">
        <ele>484.591</ele>
        <time>2013-05-06T09:11:43Z</time>
      </trkpt>
      <trkpt lat="44.21748" lon="5.30857">
        <ele>486.065</ele>
        <time>2013-05-06T09:11:49Z</time>
      </trkpt>
      <trkpt lat="44.21759" lon="5.30888">
        <ele>485.964</ele>
        <time>2013-05-06T09:11:56Z</time>
      </trkpt>
      <trkpt lat="44.2177" lon="5.30893">
        <ele>486.905</ele>
        <time>2013-05-06T09:11:59Z</time>
      </trkpt>
      <trkpt lat="44.21797" lon="5.30912">
        <ele>487.975</ele>
        <time>2013-05-06T09:12:07Z</time>
      </trkpt>
      <trkpt lat="44.21807" lon="5.30948">
        <ele>489.277</ele>
        <time>2013-05-06T09:12:14Z</time>
      </trkpt>
      <trkpt lat="44.21825" lon="5.31002">
        <ele>490.687</ele>
        <time>2013-05-06T09:12:26Z</time>
      </trkpt>
      <trkpt lat="44.21842" lon="5.3103">
        <ele>492.605</ele>
        <time>2013-05-06T09:12:33Z</time>
      </trkpt>
      <trkpt lat="44.21846" lon="5.31033">
        <ele>492.827</ele>
        <time>2013-05-06T09:12:34Z</time>
      </trkpt>
      <trkpt lat="44.2186" lon="5.31038">
        <ele>493.526</ele>
        <time>2013-05-06T09:12:38Z</time>
      </trkpt>
      <trkpt lat="44.21907" lon="5.31037">
        <ele>495.998</ele>
        <time>2013-05-06T09:12:50Z</time>
      </trkpt>
      <trkpt lat="44.21917" lon="5.31056">
        <ele>497.562</ele>
        <time>2013-05-06T09:12:55Z</time>
      </trkpt>
      <trkpt lat="44.21937" lon="5.31103">
        <ele>500.48</ele>
        <time>2013-05-06T09:13:06Z</time>
      </trkpt>
      <trkpt lat="44.21933" lon="5.31128">
        <ele>501.697</ele>
        <time>2013-05-06T09:13:12Z</time>
      </trkpt>
      <trkpt lat="44.21916" lon="5.31154">
        <ele>503.359</ele>
        <time>2013-05-06T09:13:19Z</time>
      </trkpt>
      <trkpt lat="44.2189" lon="5.31183">
        <ele>504.675</ele>
        <time>2013-05-06T09:13:28Z</time>
      </trkpt>
      <trkpt lat="44.21869" lon="5.31187">
        <ele>506.033</ele>
        <time>2013-05-06T09:13:34Z</time>
      </trkpt>
      <trkpt lat="44.21829" lon="5.3117">
        <ele>507.55</ele>
        <time>2013-05-06T09:13:45Z</time>
      </trkpt>
      <trkpt lat="44.21797" lon="5.31155">
        <ele>508.222</ele>
        <time>2013-05-06T09:13:54Z</time>
      </trkpt>
      <trkpt lat="44.21768" lon="5.31154">
        <ele>509.431</ele>
        <time>2013-05-06T09:14:02Z</time>
      </trkpt>
      <trkpt lat="44.2175" lon="5.31158">
        <ele>510.769</ele>
        <time>2013-05-06T09:14:07Z</time>
      </trkpt>
      <trkpt lat="44.21718" lon="5.31179">
        <ele>513.203</ele>
        <time>2013-05-06T09:14:17Z</time>
      </trkpt>
      <trkpt lat="44.21697" lon="5.31195">
        <ele>515.611</ele>
        <time>2013-05-06T09:14:24Z</time>
      </trkpt>
      <trkpt lat="44.21671" lon="5.31215">
        <ele>517.013</ele>
        <time>2013-05-06T09:14:32Z</time>
      </trkpt>
      <trkpt lat="44.21666" lon="5.31242">
        <ele>517.643</ele>
        <time>2013-05-06T09:14:37Z</time>
      </trkpt>
      <trkpt lat="44.21674" lon="5.3126">
        <ele>518.707</ele>
        <time>2013-05-06T09:14:41Z</time>
      </trkpt>
      <trkpt lat="44.21701" lon="5.31281">
        <ele>520.035</ele>
        <time>2013-05-06T09:14:49Z</time>
      </trkpt>
      <trkpt lat="44.21726" lon="5.31295">
        <ele>521.694</ele>
        <time>2013-05-06T09:14:56Z</time>
      </trkpt>
      <trkpt lat="44.21765" lon="5.31322">
        <ele>523.66</ele>
        <time>2013-05-06T09:15:07Z</time>
      </trkpt>
      <trkpt lat="44.21765" lon="5.31347">
        <ele>524.717</ele>
        <time>2013-05-06T09:15:12Z</time>
      </trkpt>
      <trkpt lat="44.21761" lon="5.31386">
        <ele>526.273</ele>
        <time>2013-05-06T09:15:20Z</time>
      </trkpt>
      <trkpt lat="44.21753" lon="5.31383">
        <ele>526.623</ele>
        <time>2013-05-06T09:15:24Z</time>
      </trkpt>
      <trkpt lat="44.21754" lon="5.31378">
        <ele>526.934</ele>
        <time>2013-05-06T09:15:25Z</time>
      </trkpt>
      <trkpt lat="44.21756" lon="5.31367">
        <ele>527.545</ele>
        <time>2013-05-06T09:15:27Z</time>
      </trkpt>
      <trkpt lat="44.2175" lon="5.31339">
        <ele>529.166</ele>
        <time>2013-05-06T09:15:32Z</time>
      </trkpt>
      <trkpt lat="44.21731" lon="5.31329">
        <ele>530.853</ele>
        <time>2013-05-06T09:15:37Z</time>
      </trkpt>
      <trkpt lat="44.21709" lon="5.31327">
        <ele>532.756</ele>
        <time>2013-05-06T09:15:43Z</time>
      </trkpt>
      <trkpt lat="44.21684" lon="5.31316">
        <ele>534.171</ele>
        <time>2013-05-06T09:15:50Z</time>
      </trkpt>
      <trkpt lat="44.21658" lon="5.31302">
        <ele>536.068</ele>
        <time>2013-05-06T09:15:58Z</time>
      </trkpt>
      <trkpt lat="44.21627" lon="5.31294">
        <ele>537.644</ele>
        <time>2013-05-06T09:16:07Z</time>
      </trkpt>
      <trkpt lat="44.21599" lon="5.31272">
        <ele>539.506</ele>
        <time>2013-05-06T09:16:16Z</time>
      </trkpt>
      <trkpt lat="44.21596" lon="5.31243">
        <ele>540.345</ele>
        <time>2013-05-06T09:16:22Z</time>
      </trkpt>
      <trkpt lat="44.21597" lon="5.31228">
        <ele>541.792</ele>
        <time>2013-05-06T09:16:25Z</time>
      </trkpt>
      <trkpt lat="44.21613" lon="5.31188">
        <ele>543.558</ele>
        <time>2013-05-06T09:16:34Z</time>
      </trkpt>
      <trkpt lat="44.21644" lon="5.31143">
        <ele>545.649</ele>
        <time>2013-05-06T09:16:46Z</time>
      </trkpt>
      <trkpt lat="44.21665" lon="5.31112">
        <ele>547.058</ele>
        <time>2013-05-06T09:16:54Z</time>
      </trkpt>
      <trkpt lat="44.21689" lon="5.31078">
        <ele>548.086</ele>
        <time>2013-05-06T09:17:03Z</time>
      </trkpt>
      <trkpt lat="44.21705" lon="5.31045">
        <ele>550.818</ele>
        <time>2013-05-06T09:17:11Z</time>
      </trkpt>
      <trkpt lat="44.21697" lon="5.31039">
        <ele>551.602</ele>
        <time>2013-05-06T09:17:15Z</time>
      </trkpt>
      <trkpt lat="44.21689" lon="5.31042">
        <ele>552.198</ele>
        <time>2013-05-06T09:17:17Z</time>
      </trkpt>
      <trkpt lat="44.21648" lon="5.31062">
        <ele>554.007</ele>
        <time>2013-05-06T09:17:28Z</time>
      </trkpt>
      <trkpt lat="44.21641" lon="5.31069">
        <ele>554.884</ele>
        <time>2013-05-06T09:17:30Z</time>
      </trkpt>
      <trkpt lat="44.21627" lon="5.31085">
        <ele>555.999</ele>
        <time>2013-05-06T09:17:34Z</time>
      </trkpt>
      <trkpt lat="44.21615" lon="5.3111">
        <ele>558.118</ele>
        <time>2013-05-06T09:17:39Z</time>
      </trkpt>
      <trkpt lat="44.21585" lon="5.31153">
        <ele>559.902</ele>
        <time>2013-05-06T09:17:49Z</time>
      </trkpt>
      <trkpt lat="44.21565" lon="5.31191">
        <ele>561.819</ele>
        <time>2013-05-06T09:17:57Z</time>
      </trkpt>
      <trkpt lat="44.21542" lon="5.3125">
        <ele>563.647</ele>
        <time>2013-05-06T09:18:08Z</time>
      </trkpt>
      <trkpt lat="44.21533" lon="5.31271">
        <ele>565.388</ele>
        <time>2013-05-06T09:18:12Z</time>
      </trkpt>
      <trkpt lat="44.21531" lon="5.31276">
        <ele>565.676</ele>
        <time>2013-05-06T09:18:13Z</time>
      </trkpt>
      <trkpt lat="44.21506" lon="5.313">
        <ele>567.13</ele>
        <time>2013-05-06T09:18:20Z</time>
      </trkpt>
      <trkpt lat="44.21467" lon="5.31298">
        <ele>568.904</ele>
        <time>2013-05-06T09:18:29Z</time>
      </trkpt>
      <trkpt lat="44.21436" lon="5.31291">
        <ele>570.877</ele>
        <time>2013-05-06T09:18:36Z</time>
      </trkpt>
      <trkpt lat="44.2142" lon="5.31288">
        <ele>572.312</ele>
        <time>2013-05-06T09:18:40Z</time>
      </trkpt>
      <trkpt lat="44.21399" lon="5.31301">
        <ele>573.271</ele>
        <time>2013-05-06T09:18:46Z</time>
      </trkpt>
      <trkpt lat="44.21388" lon="5.31311">
        <ele>573.407</ele>
        <time>2013-05-06T09:18:49Z</time>
      </trkpt>
      <trkpt lat="44.21358" lon="5.3135">
        <ele>576.493</ele>
        <time>2013-05-06T09:18:58Z</time>
      </trkpt>
      <trkpt lat="44.21338" lon="5.31387">
        <ele>578.019</ele>
        <time>2013-05-06T09:19:06Z</time>
      </trkpt>
      <trkpt lat="44.21336" lon="5.31391">
        <ele>578.458</ele>
        <time>2013-05-06T09:19:07Z</time>
      </trkpt>
      <trkpt lat="44.21328" lon="5.31387">
        <ele>579.848</ele>
        <time>2013-05-06T09:19:11Z</time>
      </trkpt>
      <trkpt lat="44.21328" lon="5.31381">
        <ele>579.663</ele>
        <time>2013-05-06T09:19:12Z</time>
      </trkpt>
      <trkpt lat="44.21341" lon="5.31323">
        <ele>580.788</ele>
        <time>2013-05-06T09:19:22Z</time>
      </trkpt>
      <trkpt lat="44.21347" lon="5.31296">
        <ele>582.501</ele>
        <time>2013-05-06T09:19:28Z</time>
      </trkpt>
      <trkpt lat="44.21346" lon="5.31266">
        <ele>584.802</ele>
        <time>2013-05-06T09:19:37Z</time>
      </trkpt>
      <trkpt lat="44.21334" lon="5.31241">
        <ele>585.3</ele>
        <time>2013-05-06T09:19:44Z</time>
      </trkpt>
      <trkpt lat="44.21311" lon="5.31226">
        <ele>586.366</ele>
        <time>2013-05-06T09:19:52Z</time>
      </trkpt>
      <trkpt lat="44.21285" lon="5.31227">
        <ele>588.283</ele>
        <time>2013-05-06T09:20:00Z</time>
      </trkpt>
      <trkpt lat="44.21272" lon="5.31233">
        <ele>588.962</ele>
        <time>2013-05-06T09:20:04Z</time>
      </trkpt>
      <trkpt lat="44.21239" lon="5.31247">
        <ele>589.565</ele>
        <time>2013-05-06T09:20:11Z</time>
      </trkpt>
      <trkpt lat="44.21211" lon="5.31259">
        <ele>590.823</ele>
        <time>2013-05-06T09:20:16Z</time>
      </trkpt>
      <trkpt lat="44.21196" lon="5.31266">
        <ele>592.208</ele>
        <time>2013-05-06T09:20:19Z</time>
      </trkpt>
      <trkpt lat="44.21178" lon="5.31272">
        <ele>593.981</ele>
        <time>2013-05-06T09:20:23Z</time>
      </trkpt>
      <trkpt lat="44.21169" lon="5.31273">
        <ele>594.213</ele>
        <time>2013-05-06T09:20:25Z</time>
      </trkpt>
      <trkpt lat="44.21127" lon="5.31278">
        <ele>596.263</ele>
        <time>2013-05-06T09:20:33Z</time>
      </trkpt>
      <trkpt lat="44.21106" lon="5.31275">
        <ele>598.473</ele>
        <time>2013-05-06T09:20:39Z</time>
      </trkpt>
      <trkpt lat="44.21086" lon="5.31263">
        <ele>599.094</ele>
        <time>2013-05-06T09:20:46Z</time>
      </trkpt>
      <trkpt lat="44.21061" lon="5.31231">
        <ele>601.642</ele>
        <time>2013-05-06T09:20:57Z</time>
      </trkpt>
      <trkpt lat="44.21043" lon="5.31215">
        <ele>602.893</ele>
        <time>2013-05-06T09:21:05Z</time>
      </trkpt>
      <trkpt lat="44.21036" lon="5.31229">
        <ele>603.413</ele>
        <time>2013-05-06T09:21:10Z</time>
      </trkpt>
      <trkpt lat="44.21042" lon="5.31246">
        <ele>603.195</ele>
        <time>2013-05-06T09:21:14Z</time>
      </trkpt>
      <trkpt lat="44.21061" lon="5.31289">
        <ele>605.219</ele>
        <time>2013-05-06T09:21:24Z</time>
      </trkpt>
      <trkpt lat="44.21083" lon="5.31323">
        <ele>605.72</ele>
        <time>2013-05-06T09:21:33Z</time>
      </trkpt>
      <trkpt lat="44.21119" lon="5.31355">
        <ele>607.252</ele>
        <time>2013-05-06T09:21:44Z</time>
      </trkpt>
      <trkpt lat="44.21152" lon="5.31379">
        <ele>609.815</ele>
        <time>2013-05-06T09:21:53Z</time>
      </trkpt>
      <trkpt lat="44.21156" lon="5.31383">
        <ele>609.802</ele>
        <time>2013-05-06T09:21:54Z</time>
      </trkpt>
      <trkpt lat="44.21157" lon="5.31387">
        <ele>609.379</ele>
        <time>2013-05-06T09:21:55Z</time>
      </trkpt>
      <trkpt lat="44.21155" lon="5.31407">
        <ele>609.68</ele>
        <time>2013-05-06T09:22:00Z</time>
      </trkpt>
      <trkpt lat="44.21146" lon="5.31409">
        <ele>610.16</ele>
        <time>2013-05-06T09:22:03Z</time>
      </trkpt>
      <trkpt lat="44.21103" lon="5.31381">
        <ele>611.128</ele>
        <time>2013-05-06T09:22:12Z</time>
      </trkpt>
      <trkpt lat="44.21072" lon="5.31362">
        <ele>614.222</ele>
        <time>2013-05-06T09:22:17Z</time>
      </trkpt>
      <trkpt lat="44.21066" lon="5.31359">
        <ele>614.223</ele>
        <time>2013-05-06T09:22:18Z</time>
      </trkpt>
      <trkpt lat="44.21029" lon="5.31343">
        <ele>616.785</ele>
        <time>2013-05-06T09:22:24Z</time>
      </trkpt>
      <trkpt lat="44.20992" lon="5.31325">
        <ele>618.606</ele>
        <time>2013-05-06T09:22:31Z</time>
      </trkpt>
      <trkpt lat="44.2098" lon="5.31314">
        <ele>618.898</ele>
        <time>2013-05-06T09:22:34Z</time>
      </trkpt>
      <trkpt lat="44.20958" lon="5.31291">
        <ele>620.037</ele>
        <time>2013-05-06T09:22:41Z</time>
      </trkpt>
      <trkpt lat="44.2094" lon="5.31281">
        <ele>621.519</ele>
        <time>2013-05-06T09:22:47Z</time>
      </trkpt>
      <trkpt lat="44.20929" lon="5.31302">
        <ele>622.009</ele>
        <time>2013-05-06T09:22:52Z</time>
      </trkpt>
      <trkpt lat="44.2093" lon="5.31307">
        <ele>621.88</ele>
        <time>2013-05-06T09:22:53Z</time>
      </trkpt>
      <trkpt lat="44.20945" lon="5.31361">
        <ele>621.817</ele>
        <time>2013-05-06T09:23:04Z</time>
      </trkpt>
      <trkpt lat="44.20965" lon="5.31384">
        <ele>623.818</ele>
        <time>2013-05-06T09:23:12Z</time>
      </trkpt>
      <trkpt lat="44.20975" lon="5.31394">
        <ele>624.203</ele>
        <time>2013-05-06T09:23:16Z</time>
      </trkpt>
      <trkpt lat="44.20968" lon="5.31407">
        <ele>626.384</ele>
        <time>2013-05-06T09:23:21Z</time>
      </trkpt>
      <trkpt lat="44.20965" lon="5.31407">
        <ele>626.499</ele>
        <time>2013-05-06T09:23:22Z</time>
      </trkpt>
      <trkpt lat="44.20937" lon="5.31387">
        <ele>628.293</ele>
        <time>2013-05-06T09:23:33Z</time>
      </trkpt>
      <trkpt lat="44.20907" lon="5.31366">
        <ele>629.268</ele>
        <time>2013-05-06T09:23:44Z</time>
      </trkpt>
      <trkpt lat="44.20887" lon="5.31336">
        <ele>630.788</ele>
        <time>2013-05-06T09:23:54Z</time>
      </trkpt>
      <trkpt lat="44.20873" lon="5.31305">
        <ele>633.154</ele>
        <time>2013-05-06T09:24:03Z</time>
      </trkpt>
      <trkpt lat="44.20857" lon="5.31288">
        <ele>634.442</ele>
        <time>2013-05-06T09:24:10Z</time>
      </trkpt>
      <trkpt lat="44.20845" lon="5.3129">
        <ele>634.881</ele>
        <time>2013-05-06T09:24:16Z</time>
      </trkpt>
      <trkpt lat="44.20836" lon="5.31292">
        <ele>635.489</ele>
        <time>2013-05-06T09:24:22Z</time>
      </trkpt>
      <trkpt lat="44.20834" lon="5.31292">
        <ele>635.522</ele>
        <time>2013-05-06T09:24:24Z</time>
      </trkpt>
      <trkpt lat="44.20834" lon="5.31292">
        <ele>635.456</ele>
        <time>2013-05-06T09:24:31Z</time>
      </trkpt>
      <trkpt lat="44.20834" lon="5.31292">
        <ele>635.911</ele>
        <time>2013-05-06T09:24:47Z</time>
      </trkpt>
      <trkpt lat="44.20834" lon="5.31292">
        <ele>636.057</ele>
        <time>2013-05-06T09:24:53Z</time>
      </trkpt>
      <trkpt lat="44.20834" lon="5.31292">
        <ele>635.439</ele>
        <time>2013-05-06T09:25:13Z</time>
      </trkpt>
      <trkpt lat="44.20834" lon="5.31292">
        <ele>635.57</ele>
        <time>2013-05-06T09:25:34Z</time>
      </trkpt>
      <trkpt lat="44.20834" lon="5.31292">
        <ele>635.527</ele>
        <time>2013-05-06T09:25:37Z</time>
      </trkpt>
      <trkpt lat="44.20834" lon="5.31292">
        <ele>635.141</ele>
        <time>2013-05-06T09:25:46Z</time>
      </trkpt>
      <trkpt lat="44.20834" lon="5.31292">
        <ele>634.951</ele>
        <time>2013-05-06T09:26:00Z</time>
      </trkpt>
      <trkpt lat="44.20834" lon="5.31292">
        <ele>635.426</ele>
        <time>2013-05-06T09:26:53Z</time>
      </trkpt>
      <trkpt lat="44.20834" lon="5.31292">
        <ele>635.469</ele>
        <time>2013-05-06T09:27:16Z</time>
      </trkpt>
      <trkpt lat="44.20834" lon="5.31292">
        <ele>635.187</ele>
        <time>2013-05-06T09:28:56Z</time>
      </trkpt>
      <trkpt lat="44.20834" lon="5.31292">
        <ele>635.615</ele>
        <time>2013-05-06T09:29:14Z</time>
      </trkpt>
      <trkpt lat="44.20834" lon="5.31292">
        <ele>635.198</ele>
        <time>2013-05-06T09:29:42Z</time>
      </trkpt>
      <trkpt lat="44.20834" lon="5.31292">
        <ele>634.535</ele>
        <time>2013-05-06T09:29:50Z</time>
      </trkpt>
      <trkpt lat="44.20834" lon="5.31292">
        <ele>634.869</ele>
        <time>2013-05-06T09:30:18Z</time>
      </trkpt>
      <trkpt lat="44.20834" lon="5.31292">
        <ele>634.866</ele>
        <time>2013-05-06T09:30:44Z</time>
      </trkpt>
      <trkpt lat="44.20834" lon="5.31292">
        <ele>635.122</ele>
        <time>2013-05-06T09:32:15Z</time>
      </trkpt>
      <trkpt lat="44.20834" lon="5.31292">
        <ele>634.772</ele>
        <time>2013-05-06T09:33:04Z</time>
      </trkpt>
      <trkpt lat="44.20834" lon="5.31292">
        <ele>635.615</ele>
        <time>2013-05-06T09:33:37Z</time>
      </trkpt>
      <trkpt lat="44.20818" lon="5.31308">
        <ele>635.218</ele>
        <time>2013-05-06T09:33:42Z</time>
      </trkpt>
      <trkpt lat="44.20811" lon="5.31318">
        <ele>634.706</ele>
        <time>2013-05-06T09:33:46Z</time>
      </trkpt>
      <trkpt lat="44.20805" lon="5.31337">
        <ele>635.322</ele>
        <time>2013-05-06T09:33:55Z</time>
      </trkpt>
      <trkpt lat="44.208" lon="5.31352">
        <ele>635.278</ele>
        <time>2013-05-06T09:34:03Z</time>
      </trkpt>
      <trkpt lat="44.20788" lon="5.31399">
        <ele>635.25</ele>
        <time>2013-05-06T09:34:14Z</time>
      </trkpt>
      <trkpt lat="44.2078" lon="5.31433">
        <ele>634.855</ele>
        <time>2013-05-06T09:34:22Z</time>
      </trkpt>
      <trkpt lat="44.20765" lon="5.31492">
        <ele>634.522</ele>
        <time>2013-05-06T09:34:34Z</time>
      </trkpt>
      <trkpt lat="44.20744" lon="5.31544">
        <ele>634.326</ele>
        <time>2013-05-06T09:34:44Z</time>
      </trkpt>
      <trkpt lat="44.2072" lon="5.31605">
        <ele>633.545</ele>
        <time>2013-05-06T09:34:55Z</time>
      </trkpt>
      <trkpt lat="44.20703" lon="5.31674">
        <ele>633.368</ele>
        <time>2013-05-06T09:35:06Z</time>
      </trkpt>
      <trkpt lat="44.20691" lon="5.31745">
        <ele>632.332</ele>
        <time>2013-05-06T09:35:16Z</time>
      </trkpt>
      <trkpt lat="44.20683" lon="5.31808">
        <ele>631.76</ele>
        <time>2013-05-06T09:35:25Z</time>
      </trkpt>
      <trkpt lat="44.20683" lon="5.31873">
        <ele>631.873</ele>
        <time>2013-05-06T09:35:34Z</time>
      </trkpt>
      <trkpt lat="44.20688" lon="5.31941">
        <ele>631.383</ele>
        <time>2013-05-06T09:35:43Z</time>
      </trkpt>
      <trkpt lat="44.20679" lon="5.32019">
        <ele>630.601</ele>
        <time>2013-05-06T09:35:53Z</time>
      </trkpt>
      <trkpt lat="44.20669" lon="5.32073">
        <ele>629.821</ele>
        <time>2013-05-06T09:36:00Z</time>
      </trkpt>
      <trkpt lat="44.20644" lon="5.32117">
        <ele>629.357</ele>
        <time>2013-05-06T09:36:07Z</time>
      </trkpt>
      <trkpt lat="44.20606" lon="5.32141">
        <ele>628.633</ele>
        <time>2013-05-06T09:36:14Z</time>
      </trkpt>
      <trkpt lat="44.20556" lon="5.3217">
        <ele>628.005</ele>
        <time>2013-05-06T09:36:23Z</time>
      </trkpt>
      <trkpt lat="44.20535" lon="5.322">
        <ele>628.056</ele>
        <time>2013-05-06T09:36:29Z</time>
      </trkpt>
      <trkpt lat="44.20532" lon="5.32217">
        <ele>627.065</ele>
        <time>2013-05-06T09:36:31Z</time>
      </trkpt>
      <trkpt lat="44.20526" lon="5.32287">
        <ele>626.591</ele>
        <time>2013-05-06T09:36:39Z</time>
      </trkpt>
      <trkpt lat="44.20512" lon="5.32349">
        <ele>625.303</ele>
        <time>2013-05-06T09:36:46Z</time>
      </trkpt>
      <trkpt lat="44.20504" lon="5.32365">
        <ele>625.138</ele>
        <time>2013-05-06T09:36:48Z</time>
      </trkpt>
      <trkpt lat="44.2045" lon="5.32437">
        <ele>623.651</ele>
        <time>2013-05-06T09:36:59Z</time>
      </trkpt>
      <trkpt lat="44.20419" lon="5.32471">
        <ele>623.958</ele>
        <time>2013-05-06T09:37:05Z</time>
      </trkpt>
      <trkpt lat="44.20397" lon="5.32489">
        <ele>622.971</ele>
        <time>2013-05-06T09:37:09Z</time>
      </trkpt>
      <trkpt lat="44.20357" lon="5.32517">
        <ele>623.419</ele>
        <time>2013-05-06T09:37:16Z</time>
      </trkpt>
      <trkpt lat="44.20341" lon="5.32554">
        <ele>622.883</ele>
        <time>2013-05-06T09:37:21Z</time>
      </trkpt>
      <trkpt lat="44.20319" lon="5.32657">
        <ele>621.316</ele>
        <time>2013-05-06T09:37:32Z</time>
      </trkpt>
      <trkpt lat="44.20301" lon="5.32698">
        <ele>620.87</ele>
        <time>2013-05-06T09:37:37Z</time>
      </trkpt>
      <trkpt lat="44.20266" lon="5.32759">
        <ele>621.129</ele>
        <time>2013-05-06T09:37:45Z</time>
      </trkpt>
      <trkpt lat="44.20234" lon="5.32852">
        <ele>619.934</ele>
        <time>2013-05-06T09:37:55Z</time>
      </trkpt>
      <trkpt lat="44.20217" lon="5.32932">
        <ele>619.224</ele>
        <time>2013-05-06T09:38:03Z</time>
      </trkpt>
      <trkpt lat="44.20188" lon="5.33047">
        <ele>618.267</ele>
        <time>2013-05-06T09:38:15Z</time>
      </trkpt>
      <trkpt lat="44.20149" lon="5.33179">
        <ele>615.956</ele>
        <time>2013-05-06T09:38:29Z</time>
      </trkpt>
      <trkpt lat="44.20146" lon="5.3324">
        <ele>616.203</ele>
        <time>2013-05-06T09:38:35Z</time>
      </trkpt>
      <trkpt lat="44.20151" lon="5.33291">
        <ele>615.511</ele>
        <time>2013-05-06T09:38:40Z</time>
      </trkpt>
      <trkpt lat="44.2014" lon="5.33339">
        <ele>615.158</ele>
        <time>2013-05-06T09:38:45Z</time>
      </trkpt>
      <trkpt lat="44.20135" lon="5.33358">
        <ele>615.593</ele>
        <time>2013-05-06T09:38:47Z</time>
      </trkpt>
      <trkpt lat="44.20095" lon="5.33433">
        <ele>613.926</ele>
        <time>2013-05-06T09:38:56Z</time>
      </trkpt>
      <trkpt lat="44.20064" lon="5.33488">
        <ele>612.862</ele>
        <time>2013-05-06T09:39:03Z</time>
      </trkpt>
      <trkpt lat="44.2004" lon="5.3351">
        <ele>612.539</ele>
        <time>2013-05-06T09:39:07Z</time>
      </trkpt>
      <trkpt lat="44.19969" lon="5.33528">
        <ele>611.474</ele>
        <time>2013-05-06T09:39:17Z</time>
      </trkpt>
      <trkpt lat="44.19948" lon="5.33532">
        <ele>613.088</ele>
        <time>2013-05-06T09:39:20Z</time>
      </trkpt>
      <trkpt lat="44.19908" lon="5.33557">
        <ele>611.973</ele>
        <time>2013-05-06T09:39:26Z</time>
      </trkpt>
      <trkpt lat="44.19824" lon="5.33626">
        <ele>610.748</ele>
        <time>2013-05-06T09:39:39Z</time>
      </trkpt>
      <trkpt lat="44.19784" lon="5.33672">
        <ele>610.975</ele>
        <time>2013-05-06T09:39:46Z</time>
      </trkpt>
      <trkpt lat="44.1977" lon="5.33694">
        <ele>610.531</ele>
        <time>2013-05-06T09:39:49Z</time>
      </trkpt>
      <trkpt lat="44.19741" lon="5.33712">
        <ele>610.396</ele>
        <time>2013-05-06T09:39:54Z</time>
      </trkpt>
      <trkpt lat="44.19735" lon="5.33712">
        <ele>610.39</ele>
        <time>2013-05-06T09:39:55Z</time>
      </trkpt>
      <trkpt lat="44.19688" lon="5.33713">
        <ele>610.905</ele>
        <time>2013-05-06T09:40:02Z</time>
      </trkpt>
      <trkpt lat="44.19661" lon="5.33735">
        <ele>612.646</ele>
        <time>2013-05-06T09:40:07Z</time>
      </trkpt>
      <trkpt lat="44.19652" lon="5.33766">
        <ele>612.964</ele>
        <time>2013-05-06T09:40:11Z</time>
      </trkpt>
      <trkpt lat="44.19642" lon="5.338">
        <ele>615.026</ele>
        <time>2013-05-06T09:40:16Z</time>
      </trkpt>
      <trkpt lat="44.19626" lon="5.33857">
        <ele>617.452</ele>
        <time>2013-05-06T09:40:26Z</time>
      </trkpt>
      <trkpt lat="44.19623" lon="5.33867">
        <ele>617.365</ele>
        <time>2013-05-06T09:40:28Z</time>
      </trkpt>
      <trkpt lat="44.19608" lon="5.33892">
        <ele>618.568</ele>
        <time>2013-05-06T09:40:34Z</time>
      </trkpt>
      <trkpt lat="44.19605" lon="5.33895">
        <ele>618.927</ele>
        <time>2013-05-06T09:40:35Z</time>
      </trkpt>
      <trkpt lat="44.19564" lon="5.33919">
        <ele>620.357</ele>
        <time>2013-05-06T09:40:47Z</time>
      </trkpt>
      <trkpt lat="44.19551" lon="5.33941">
        <ele>621.809</ele>
        <time>2013-05-06T09:40:53Z</time>
      </trkpt>
      <trkpt lat="44.1955" lon="5.33979">
        <ele>622.69</ele>
        <time>2013-05-06T09:41:00Z</time>
      </trkpt>
      <trkpt lat="44.19548" lon="5.34034">
        <ele>624.886</ele>
        <time>2013-05-06T09:41:10Z</time>
      </trkpt>
      <trkpt lat="44.19543" lon="5.34094">
        <ele>626.122</ele>
        <time>2013-05-06T09:41:22Z</time>
      </trkpt>
      <trkpt lat="44.19531" lon="5.34166">
        <ele>627.713</ele>
        <time>2013-05-06T09:41:37Z</time>
      </trkpt>
      <trkpt lat="44.19516" lon="5.34222">
        <ele>629.828</ele>
        <time>2013-05-06T09:41:49Z</time>
      </trkpt>
      <trkpt lat="44.19505" lon="5.34279">
        <ele>631.403</ele>
        <time>2013-05-06T09:42:01Z</time>
      </trkpt>
      <trkpt lat="44.19495" lon="5.3434">
        <ele>633.052</ele>
        <time>2013-05-06T09:42:14Z</time>
      </trkpt>
      <trkpt lat="44.1949" lon="5.34347">
        <ele>633.883</ele>
        <time>2013-05-06T09:42:16Z</time>
      </trkpt>
      <trkpt lat="44.19468" lon="5.34379">
        <ele>634.769</ele>
        <time>2013-05-06T09:42:25Z</time>
      </trkpt>
      <trkpt lat="44.19439" lon="5.34426">
        <ele>636.523</ele>
        <time>2013-05-06T09:42:37Z</time>
      </trkpt>
      <trkpt lat="44.19416" lon="5.34469">
        <ele>638.294</ele>
        <time>2013-05-06T09:42:47Z</time>
      </trkpt>
      <trkpt lat="44.1939" lon="5.34518">
        <ele>639.234</ele>
        <time>2013-05-06T09:42:59Z</time>
      </trkpt>
      <trkpt lat="44.19358" lon="5.34556">
        <ele>640.823</ele>
        <time>2013-05-06T09:43:10Z</time>
      </trkpt>
      <trkpt lat="44.19324" lon="5.34578">
        <ele>642.281</ele>
        <time>2013-05-06T09:43:20Z</time>
      </trkpt>
      <trkpt lat="44.19273" lon="5.34608">
        <ele>644.026</ele>
        <time>2013-05-06T09:43:34Z</time>
      </trkpt>
      <trkpt lat="44.19248" lon="5.34625">
        <ele>644.443</ele>
        <time>2013-05-06T09:43:40Z</time>
      </trkpt>
      <trkpt lat="44.19229" lon="5.34664">
        <ele>643.045</ele>
        <time>2013-05-06T09:43:46Z</time>
      </trkpt>
      <trkpt lat="44.19229" lon="5.347">
        <ele>642.302</ele>
        <time>2013-05-06T09:43:50Z</time>
      </trkpt>
      <trkpt lat="44.19235" lon="5.3474">
        <ele>639.932</ele>
        <time>2013-05-06T09:43:54Z</time>
      </trkpt>
      <trkpt lat="44.1925" lon="5.34845">
        <ele>636.898</ele>
        <time>2013-05-06T09:44:03Z</time>
      </trkpt>
      <trkpt lat="44.19255" lon="5.34879">
        <ele>636.744</ele>
        <time>2013-05-06T09:44:06Z</time>
      </trkpt>
      <trkpt lat="44.1925" lon="5.34906">
        <ele>634.471</ele>
        <time>2013-05-06T09:44:09Z</time>
      </trkpt>
      <trkpt lat="44.19231" lon="5.3491">
        <ele>634.321</ele>
        <time>2013-05-06T09:44:12Z</time>
      </trkpt>
      <trkpt lat="44.19211" lon="5.34923">
        <ele>634.013</ele>
        <time>2013-05-06T09:44:15Z</time>
      </trkpt>
      <trkpt lat="44.19195" lon="5.34957">
        <ele>633.489</ele>
        <time>2013-05-06T09:44:19Z</time>
      </trkpt>
      <trkpt lat="44.19201" lon="5.34986">
        <ele>632.496</ele>
        <time>2013-05-06T09:44:22Z</time>
      </trkpt>
      <trkpt lat="44.19211" lon="5.35001">
        <ele>632.499</ele>
        <time>2013-05-06T09:44:24Z</time>
      </trkpt>
      <trkpt lat="44.1923" lon="5.35024">
        <ele>632.741</ele>
        <time>2013-05-06T09:44:27Z</time>
      </trkpt>
      <trkpt lat="44.19243" lon="5.35075">
        <ele>631.091</ele>
        <time>2013-05-06T09:44:32Z</time>
      </trkpt>
      <trkpt lat="44.19246" lon="5.35085">
        <ele>630.801</ele>
        <time>2013-05-06T09:44:33Z</time>
      </trkpt>
      <trkpt lat="44.1927" lon="5.35136">
        <ele>631.527</ele>
        <time>2013-05-06T09:44:39Z</time>
      </trkpt>
      <trkpt lat="44.19288" lon="5.35184">
        <ele>629.425</ele>
        <time>2013-05-06T09:44:44Z</time>
      </trkpt>
      <trkpt lat="44.19285" lon="5.35228">
        <ele>629.286</ele>
        <time>2013-05-06T09:44:48Z</time>
      </trkpt>
      <trkpt lat="44.19262" lon="5.35267">
        <ele>627.346</ele>
        <time>2013-05-06T09:44:53Z</time>
      </trkpt>
      <trkpt lat="44.1925" lon="5.35277">
        <ele>627.735</ele>
        <time>2013-05-06T09:44:55Z</time>
      </trkpt>
      <trkpt lat="44.19208" lon="5.35307">
        <ele>627.654</ele>
        <time>2013-05-06T09:45:01Z</time>
      </trkpt>
      <trkpt lat="44.19183" lon="5.35363">
        <ele>626.628</ele>
        <time>2013-05-06T09:45:07Z</time>
      </trkpt>
      <trkpt lat="44.1918" lon="5.35373">
        <ele>625.946</ele>
        <time>2013-05-06T09:45:08Z</time>
      </trkpt>
      <trkpt lat="44.19174" lon="5.35394">
        <ele>625.715</ele>
        <time>2013-05-06T09:45:10Z</time>
      </trkpt>
      <trkpt lat="44.19149" lon="5.35437">
        <ele>623.338</ele>
        <time>2013-05-06T09:45:15Z</time>
      </trkpt>
      <trkpt lat="44.19141" lon="5.35442">
        <ele>622.866</ele>
        <time>2013-05-06T09:45:16Z</time>
      </trkpt>
      <trkpt lat="44.19101" lon="5.35472">
        <ele>620.83</ele>
        <time>2013-05-06T09:45:21Z</time>
      </trkpt>
      <trkpt lat="44.19094" lon="5.35479">
        <ele>620.472</ele>
        <time>2013-05-06T09:45:22Z</time>
      </trkpt>
      <trkpt lat="44.19061" lon="5.35526">
        <ele>619.559</ele>
        <time>2013-05-06T09:45:27Z</time>
      </trkpt>
      <trkpt lat="44.19058" lon="5.35539">
        <ele>619.222</ele>
        <time>2013-05-06T09:45:28Z</time>
      </trkpt>
      <trkpt lat="44.1905" lon="5.35565">
        <ele>617.896</ele>
        <time>2013-05-06T09:45:30Z</time>
      </trkpt>
      <trkpt lat="44.19023" lon="5.35671">
        <ele>616.247</ele>
        <time>2013-05-06T09:45:38Z</time>
      </trkpt>
      <trkpt lat="44.1903" lon="5.35726">
        <ele>614.157</ele>
        <time>2013-05-06T09:45:42Z</time>
      </trkpt>
      <trkpt lat="44.19034" lon="5.35739">
        <ele>613.98</ele>
        <time>2013-05-06T09:45:43Z</time>
      </trkpt>
      <trkpt lat="44.19041" lon="5.35751">
        <ele>613.909</ele>
        <time>2013-05-06T09:45:44Z</time>
      </trkpt>
      <trkpt lat="44.19059" lon="5.35789">
        <ele>612.899</ele>
        <time>2013-05-06T09:45:47Z</time>
      </trkpt>
      <trkpt lat="44.19063" lon="5.35844">
        <ele>609.113</ele>
        <time>2013-05-06T09:45:51Z</time>
      </trkpt>
      <trkpt lat="44.19057" lon="5.35856">
        <ele>607.825</ele>
        <time>2013-05-06T09:45:52Z</time>
      </trkpt>
      <trkpt lat="44.1904" lon="5.35894">
        <ele>606.707</ele>
        <time>2013-05-06T09:45:55Z</time>
      </trkpt>
      <trkpt lat="44.19032" lon="5.35951">
        <ele>605.998</ele>
        <time>2013-05-06T09:45:59Z</time>
      </trkpt>
      <trkpt lat="44.19036" lon="5.35979">
        <ele>605.372</ele>
        <time>2013-05-06T09:46:01Z</time>
      </trkpt>
      <trkpt lat="44.19044" lon="5.36021">
        <ele>602.104</ele>
        <time>2013-05-06T09:46:04Z</time>
      </trkpt>
      <trkpt lat="44.19053" lon="5.36091">
        <ele>601.444</ele>
        <time>2013-05-06T09:46:09Z</time>
      </trkpt>
      <trkpt lat="44.1905" lon="5.36164">
        <ele>598.104</ele>
        <time>2013-05-06T09:46:14Z</time>
      </trkpt>
      <trkpt lat="44.1905" lon="5.36178">
        <ele>597.96</ele>
        <time>2013-05-06T09:46:15Z</time>
      </trkpt>
      <trkpt lat="44.19044" lon="5.3622">
        <ele>596.142</ele>
        <time>2013-05-06T09:46:18Z</time>
      </trkpt>
      <trkpt lat="44.19036" lon="5.36245">
        <ele>594.787</ele>
        <time>2013-05-06T09:46:20Z</time>
      </trkpt>
      <trkpt lat="44.19021" lon="5.3628">
        <ele>594.904</ele>
        <time>2013-05-06T09:46:23Z</time>
      </trkpt>
      <trkpt lat="44.19011" lon="5.36332">
        <ele>594.399</ele>
        <time>2013-05-06T09:46:27Z</time>
      </trkpt>
      <trkpt lat="44.18999" lon="5.36471">
        <ele>589.292</ele>
        <time>2013-05-06T09:46:37Z</time>
      </trkpt>
      <trkpt lat="44.18998" lon="5.36486">
        <ele>589.214</ele>
        <time>2013-05-06T09:46:38Z</time>
      </trkpt>
      <trkpt lat="44.18989" lon="5.36568">
        <ele>587.154</ele>
        <time>2013-05-06T09:46:44Z</time>
      </trkpt>
      <trkpt lat="44.18986" lon="5.36581">
        <ele>587.443</ele>
        <time>2013-05-06T09:46:45Z</time>
      </trkpt>
      <trkpt lat="44.18964" lon="5.36624">
        <ele>584.181</ele>
        <time>2013-05-06T09:46:49Z</time>
      </trkpt>
      <trkpt lat="44.18949" lon="5.3668">
        <ele>584.069</ele>
        <time>2013-05-06T09:46:54Z</time>
      </trkpt>
      <trkpt lat="44.1896" lon="5.36713">
        <ele>583.407</ele>
        <time>2013-05-06T09:46:57Z</time>
      </trkpt>
      <trkpt lat="44.18966" lon="5.36723">
        <ele>582.617</ele>
        <time>2013-05-06T09:46:58Z</time>
      </trkpt>
      <trkpt lat="44.18978" lon="5.36743">
        <ele>582.504</ele>
        <time>2013-05-06T09:47:00Z</time>
      </trkpt>
      <trkpt lat="44.18982" lon="5.36793">
        <ele>580.04</ele>
        <time>2013-05-06T09:47:04Z</time>
      </trkpt>
      <trkpt lat="44.18979" lon="5.36818">
        <ele>578.572</ele>
        <time>2013-05-06T09:47:06Z</time>
      </trkpt>
      <trkpt lat="44.18969" lon="5.36839">
        <ele>578.708</ele>
        <time>2013-05-06T09:47:08Z</time>
      </trkpt>
      <trkpt lat="44.18954" lon="5.36867">
        <ele>575.58</ele>
        <time>2013-05-06T09:47:11Z</time>
      </trkpt>
      <trkpt lat="44.18949" lon="5.36871">
        <ele>575.366</ele>
        <time>2013-05-06T09:47:12Z</time>
      </trkpt>
      <trkpt lat="44.18921" lon="5.36865">
        <ele>575.176</ele>
        <time>2013-05-06T09:47:15Z</time>
      </trkpt>
      <trkpt lat="44.18893" lon="5.36858">
        <ele>573.621</ele>
        <time>2013-05-06T09:47:18Z</time>
      </trkpt>
      <trkpt lat="44.18884" lon="5.36856">
        <ele>574.972</ele>
        <time>2013-05-06T09:47:19Z</time>
      </trkpt>
      <trkpt lat="44.18853" lon="5.36866">
        <ele>573.222</ele>
        <time>2013-05-06T09:47:23Z</time>
      </trkpt>
      <trkpt lat="44.18843" lon="5.369">
        <ele>571.83</ele>
        <time>2013-05-06T09:47:26Z</time>
      </trkpt>
      <trkpt lat="44.18824" lon="5.36926">
        <ele>569.421</ele>
        <time>2013-05-06T09:47:29Z</time>
      </trkpt>
      <trkpt lat="44.18794" lon="5.36951">
        <ele>569.924</ele>
        <time>2013-05-06T09:47:33Z</time>
      </trkpt>
      <trkpt lat="44.18766" lon="5.36987">
        <ele>568.128</ele>
        <time>2013-05-06T09:47:37Z</time>
      </trkpt>
      <trkpt lat="44.18718" lon="5.37056">
        <ele>565.972</ele>
        <time>2013-05-06T09:47:44Z</time>
      </trkpt>
      <trkpt lat="44.18707" lon="5.37081">
        <ele>564.545</ele>
        <time>2013-05-06T09:47:46Z</time>
      </trkpt>
      <trkpt lat="44.18701" lon="5.37094">
        <ele>564.225</ele>
        <time>2013-05-06T09:47:47Z</time>
      </trkpt>
      <trkpt lat="44.18695" lon="5.37124">
        <ele>563.125</ele>
        <time>2013-05-06T09:47:49Z</time>
      </trkpt>
      <trkpt lat="44.18686" lon="5.37212">
        <ele>561.076</ele>
        <time>2013-05-06T09:47:55Z</time>
      </trkpt>
      <trkpt lat="44.18684" lon="5.37241">
        <ele>560.44</ele>
        <time>2013-05-06T09:47:57Z</time>
      </trkpt>
      <trkpt lat="44.18665" lon="5.373">
        <ele>559.515</ele>
        <time>2013-05-06T09:48:02Z</time>
      </trkpt>
      <trkpt lat="44.18666" lon="5.37331">
        <ele>558.167</ele>
        <time>2013-05-06T09:48:05Z</time>
      </trkpt>
      <trkpt lat="44.18671" lon="5.37338">
        <ele>558.381</ele>
        <time>2013-05-06T09:48:06Z</time>
      </trkpt>
      <trkpt lat="44.18691" lon="5.37352">
        <ele>557.118</ele>
        <time>2013-05-06T09:48:09Z</time>
      </trkpt>
      <trkpt lat="44.18715" lon="5.37359">
        <ele>557.091</ele>
        <time>2013-05-06T09:48:12Z</time>
      </trkpt>
      <trkpt lat="44.18742" lon="5.37363">
        <ele>555.177</ele>
        <time>2013-05-06T09:48:15Z</time>
      </trkpt>
      <trkpt lat="44.1876" lon="5.37365">
        <ele>553.997</ele>
        <time>2013-05-06T09:48:17Z</time>
      </trkpt>
      <trkpt lat="44.18795" lon="5.37385">
        <ele>551.095</ele>
        <time>2013-05-06T09:48:21Z</time>
      </trkpt>
      <trkpt lat="44.188" lon="5.37411">
        <ele>550.237</ele>
        <time>2013-05-06T09:48:23Z</time>
      </trkpt>
      <trkpt lat="44.18796" lon="5.37447">
        <ele>548.431</ele>
        <time>2013-05-06T09:48:26Z</time>
      </trkpt>
      <trkpt lat="44.18775" lon="5.37467">
        <ele>547.613</ele>
        <time>2013-05-06T09:48:29Z</time>
      </trkpt>
      <trkpt lat="44.18737" lon="5.37484">
        <ele>542.173</ele>
        <time>2013-05-06T09:48:33Z</time>
      </trkpt>
      <trkpt lat="44.18709" lon="5.37496">
        <ele>543.744</ele>
        <time>2013-05-06T09:48:36Z</time>
      </trkpt>
      <trkpt lat="44.18642" lon="5.37525">
        <ele>540.338</ele>
        <time>2013-05-06T09:48:43Z</time>
      </trkpt>
      <trkpt lat="44.18622" lon="5.37534">
        <ele>537.005</ele>
        <time>2013-05-06T09:48:45Z</time>
      </trkpt>
      <trkpt lat="44.18602" lon="5.3754">
        <ele>536.388</ele>
        <time>2013-05-06T09:48:47Z</time>
      </trkpt>
      <trkpt lat="44.18564" lon="5.37532">
        <ele>535.436</ele>
        <time>2013-05-06T09:48:51Z</time>
      </trkpt>
      <trkpt lat="44.1852" lon="5.37533">
        <ele>535.179</ele>
        <time>2013-05-06T09:48:56Z</time>
      </trkpt>
      <trkpt lat="44.18515" lon="5.37543">
        <ele>534.972</ele>
        <time>2013-05-06T09:48:57Z</time>
      </trkpt>
      <trkpt lat="44.18485" lon="5.37596">
        <ele>533.954</ele>
        <time>2013-05-06T09:49:02Z</time>
      </trkpt>
      <trkpt lat="44.18479" lon="5.37646">
        <ele>532.047</ele>
        <time>2013-05-06T09:49:06Z</time>
      </trkpt>
      <trkpt lat="44.18482" lon="5.37684">
        <ele>530.604</ele>
        <time>2013-05-06T09:49:09Z</time>
      </trkpt>
      <trkpt lat="44.18475" lon="5.37704">
        <ele>529.479</ele>
        <time>2013-05-06T09:49:11Z</time>
      </trkpt>
      <trkpt lat="44.18452" lon="5.3772">
        <ele>528.545</ele>
        <time>2013-05-06T09:49:14Z</time>
      </trkpt>
      <trkpt lat="44.18443" lon="5.3772">
        <ele>528.752</ele>
        <time>2013-05-06T09:49:15Z</time>
      </trkpt>
      <trkpt lat="44.18404" lon="5.37717">
        <ele>525.041</ele>
        <time>2013-05-06T09:49:19Z</time>
      </trkpt>
      <trkpt lat="44.18394" lon="5.37717">
        <ele>524.26</ele>
        <time>2013-05-06T09:49:20Z</time>
      </trkpt>
      <trkpt lat="44.18374" lon="5.37709">
        <ele>522.791</ele>
        <time>2013-05-06T09:49:22Z</time>
      </trkpt>
      <trkpt lat="44.18357" lon="5.37696">
        <ele>521.391</ele>
        <time>2013-05-06T09:49:24Z</time>
      </trkpt>
      <trkpt lat="44.18325" lon="5.3767">
        <ele>517.434</ele>
        <time>2013-05-06T09:49:28Z</time>
      </trkpt>
      <trkpt lat="44.18317" lon="5.37666">
        <ele>517.323</ele>
        <time>2013-05-06T09:49:29Z</time>
      </trkpt>
      <trkpt lat="44.18282" lon="5.37676">
        <ele>518.424</ele>
        <time>2013-05-06T09:49:33Z</time>
      </trkpt>
      <trkpt lat="44.18262" lon="5.377">
        <ele>517.834</ele>
        <time>2013-05-06T09:49:36Z</time>
      </trkpt>
      <trkpt lat="44.18249" lon="5.37735">
        <ele>516.211</ele>
        <time>2013-05-06T09:49:39Z</time>
      </trkpt>
      <trkpt lat="44.18219" lon="5.37879">
        <ele>515.952</ele>
        <time>2013-05-06T09:49:50Z</time>
      </trkpt>
      <trkpt lat="44.18213" lon="5.37896">
        <ele>516.126</ele>
        <time>2013-05-06T09:49:52Z</time>
      </trkpt>
      <trkpt lat="44.18201" lon="5.37911">
        <ele>515.627</ele>
        <time>2013-05-06T09:49:55Z</time>
      </trkpt>
      <trkpt lat="44.18193" lon="5.37956">
        <ele>515.044</ele>
        <time>2013-05-06T09:50:01Z</time>
      </trkpt>
      <trkpt lat="44.18194" lon="5.37964">
        <ele>515.707</ele>
        <time>2013-05-06T09:50:02Z</time>
      </trkpt>
      <trkpt lat="44.18197" lon="5.38007">
        <ele>515.087</ele>
        <time>2013-05-06T09:50:07Z</time>
      </trkpt>
      <trkpt lat="44.18205" lon="5.38057">
        <ele>514.081</ele>
        <time>2013-05-06T09:50:13Z</time>
      </trkpt>
      <trkpt lat="44.18233" lon="5.38137">
        <ele>514.102</ele>
        <time>2013-05-06T09:50:22Z</time>
      </trkpt>
      <trkpt lat="44.18252" lon="5.38214">
        <ele>515.339</ele>
        <time>2013-05-06T09:50:30Z</time>
      </trkpt>
      <trkpt lat="44.18274" lon="5.38326">
        <ele>517.033</ele>
        <time>2013-05-06T09:50:42Z</time>
      </trkpt>
      <trkpt lat="44.18296" lon="5.38444">
        <ele>517.813</ele>
        <time>2013-05-06T09:50:55Z</time>
      </trkpt>
      <trkpt lat="44.18321" lon="5.38577">
        <ele>518.794</ele>
        <time>2013-05-06T09:51:10Z</time>
      </trkpt>
      <trkpt lat="44.18336" lon="5.38656">
        <ele>518.742</ele>
        <time>2013-05-06T09:51:22Z</time>
      </trkpt>
      <trkpt lat="44.18328" lon="5.38735">
        <ele>518.602</ele>
        <time>2013-05-06T09:51:28Z</time>
      </trkpt>
      <trkpt lat="44.18312" lon="5.38786">
        <ele>519.602</ele>
        <time>2013-05-06T09:51:34Z</time>
      </trkpt>
      <trkpt lat="44.18286" lon="5.38841">
        <ele>518.498</ele>
        <time>2013-05-06T09:51:41Z</time>
      </trkpt>
      <trkpt lat="44.1823" lon="5.38954">
        <ele>518.766</ele>
        <time>2013-05-06T09:51:55Z</time>
      </trkpt>
      <trkpt lat="44.18182" lon="5.39052">
        <ele>519.092</ele>
        <time>2013-05-06T09:52:08Z</time>
      </trkpt>
      <trkpt lat="44.18132" lon="5.39153">
        <ele>521.536</ele>
        <time>2013-05-06T09:52:22Z</time>
      </trkpt>
      <trkpt lat="44.18086" lon="5.39248">
        <ele>523.556</ele>
        <time>2013-05-06T09:52:35Z</time>
      </trkpt>
      <trkpt lat="44.18044" lon="5.39333">
        <ele>525.946</ele>
        <time>2013-05-06T09:52:47Z</time>
      </trkpt>
      <trkpt lat="44.17989" lon="5.39444">
        <ele>527.113</ele>
        <time>2013-05-06T09:53:02Z</time>
      </trkpt>
      <trkpt lat="44.17956" lon="5.39521">
        <ele>528.061</ele>
        <time>2013-05-06T09:53:13Z</time>
      </trkpt>
      <trkpt lat="44.17944" lon="5.39562">
        <ele>529.003</ele>
        <time>2013-05-06T09:53:20Z</time>
      </trkpt>
      <trkpt lat="44.17932" lon="5.39603">
        <ele>530.802</ele>
        <time>2013-05-06T09:53:28Z</time>
      </trkpt>
      <trkpt lat="44.1792" lon="5.39647">
        <ele>531.626</ele>
        <time>2013-05-06T09:53:37Z</time>
      </trkpt>
      <trkpt lat="44.17908" lon="5.39688">
        <ele>531.971</ele>
        <time>2013-05-06T09:53:45Z</time>
      </trkpt>
      <trkpt lat="44.17889" lon="5.39749">
        <ele>532.213</ele>
        <time>2013-05-06T09:53:55Z</time>
      </trkpt>
      <trkpt lat="44.17858" lon="5.39836">
        <ele>533.102</ele>
        <time>2013-05-06T09:54:09Z</time>
      </trkpt>
      <trkpt lat="44.17825" lon="5.39915">
        <ele>533.961</ele>
        <time>2013-05-06T09:54:24Z</time>
      </trkpt>
      <trkpt lat="44.17793" lon="5.39983">
        <ele>534.612</ele>
        <time>2013-05-06T09:54:37Z</time>
      </trkpt>
      <trkpt lat="44.17764" lon="5.40044">
        <ele>536.309</ele>
        <time>2013-05-06T09:54:49Z</time>
      </trkpt>
      <trkpt lat="44.17761" lon="5.40047">
        <ele>536.228</ele>
        <time>2013-05-06T09:54:50Z</time>
      </trkpt>
      <trkpt lat="44.17727" lon="5.40083">
        <ele>537.498</ele>
        <time>2013-05-06T09:55:00Z</time>
      </trkpt>
      <trkpt lat="44.17678" lon="5.40134">
        <ele>539.564</ele>
        <time>2013-05-06T09:55:15Z</time>
      </trkpt>
      <trkpt lat="44.17637" lon="5.40171">
        <ele>540.349</ele>
        <time>2013-05-06T09:55:27Z</time>
      </trkpt>
      <trkpt lat="44.17617" lon="5.40175">
        <ele>540.612</ele>
        <time>2013-05-06T09:55:32Z</time>
      </trkpt>
      <trkpt lat="44.17575" lon="5.40159">
        <ele>542.705</ele>
        <time>2013-05-06T09:55:43Z</time>
      </trkpt>
      <trkpt lat="44.1756" lon="5.40158">
        <ele>544.245</ele>
        <time>2013-05-06T09:55:47Z</time>
      </trkpt>
      <trkpt lat="44.17539" lon="5.40171">
        <ele>546.006</ele>
        <time>2013-05-06T09:55:53Z</time>
      </trkpt>
      <trkpt lat="44.17521" lon="5.40191">
        <ele>548.008</ele>
        <time>2013-05-06T09:55:59Z</time>
      </trkpt>
      <trkpt lat="44.17512" lon="5.40202">
        <ele>548.378</ele>
        <time>2013-05-06T09:56:02Z</time>
      </trkpt>
      <trkpt lat="44.17499" lon="5.40228">
        <ele>549.362</ele>
        <time>2013-05-06T09:56:07Z</time>
      </trkpt>
      <trkpt lat="44.17496" lon="5.40259">
        <ele>547.84</ele>
        <time>2013-05-06T09:56:12Z</time>
      </trkpt>
      <trkpt lat="44.17498" lon="5.40322">
        <ele>547.429</ele>
        <time>2013-05-06T09:56:21Z</time>
      </trkpt>
      <trkpt lat="44.17489" lon="5.40396">
        <ele>546.664</ele>
        <time>2013-05-06T09:56:31Z</time>
      </trkpt>
      <trkpt lat="44.17483" lon="5.40451">
        <ele>546.78</ele>
        <time>2013-05-06T09:56:38Z</time>
      </trkpt>
      <trkpt lat="44.1747" lon="5.40475">
        <ele>546.557</ele>
        <time>2013-05-06T09:56:42Z</time>
      </trkpt>
      <trkpt lat="44.17439" lon="5.40503">
        <ele>547.108</ele>
        <time>2013-05-06T09:56:49Z</time>
      </trkpt>
      <trkpt lat="44.17379" lon="5.40554">
        <ele>547.467</ele>
        <time>2013-05-06T09:57:01Z</time>
      </trkpt>
      <trkpt lat="44.17337" lon="5.40594">
        <ele>546.385</ele>
        <time>2013-05-06T09:57:10Z</time>
      </trkpt>
      <trkpt lat="44.173" lon="5.40653">
        <ele>547.352</ele>
        <time>2013-05-06T09:57:20Z</time>
      </trkpt>
      <trkpt lat="44.17267" lon="5.407">
        <ele>547.062</ele>
        <time>2013-05-06T09:57:28Z</time>
      </trkpt>
      <trkpt lat="44.1724" lon="5.40734">
        <ele>547.396</ele>
        <time>2013-05-06T09:57:34Z</time>
      </trkpt>
      <trkpt lat="44.17219" lon="5.40773">
        <ele>547.737</ele>
        <time>2013-05-06T09:57:40Z</time>
      </trkpt>
      <trkpt lat="44.17216" lon="5.4078">
        <ele>547.88</ele>
        <time>2013-05-06T09:57:41Z</time>
      </trkpt>
      <trkpt lat="44.17191" lon="5.40832">
        <ele>548.439</ele>
        <time>2013-05-06T09:57:48Z</time>
      </trkpt>
      <trkpt lat="44.17176" lon="5.40854">
        <ele>549.101</ele>
        <time>2013-05-06T09:57:52Z</time>
      </trkpt>
      <trkpt lat="44.17155" lon="5.40887">
        <ele>550.369</ele>
        <time>2013-05-06T09:58:00Z</time>
      </trkpt>
      <trkpt lat="44.17147" lon="5.40905">
        <ele>550.838</ele>
        <time>2013-05-06T09:58:06Z</time>
      </trkpt>
      <trkpt lat="44.17136" lon="5.40931">
        <ele>551.297</ele>
        <time>2013-05-06T09:58:13Z</time>
      </trkpt>
      <trkpt lat="44.1712" lon="5.40966">
        <ele>551.875</ele>
        <time>2013-05-06T09:58:22Z</time>
      </trkpt>
      <trkpt lat="44.17109" lon="5.4099">
        <ele>552.266</ele>
        <time>2013-05-06T09:58:28Z</time>
      </trkpt>
      <trkpt lat="44.171" lon="5.41019">
        <ele>552.767</ele>
        <time>2013-05-06T09:58:34Z</time>
      </trkpt>
      <trkpt lat="44.17091" lon="5.41051">
        <ele>552.844</ele>
        <time>2013-05-06T09:58:40Z</time>
      </trkpt>
      <trkpt lat="44.17083" lon="5.41107">
        <ele>552.792</ele>
        <time>2013-05-06T09:58:48Z</time>
      </trkpt>
      <trkpt lat="44.17091" lon="5.41171">
        <ele>552.367</ele>
        <time>2013-05-06T09:58:57Z</time>
      </trkpt>
      <trkpt lat="44.17088" lon="5.41213">
        <ele>552.447</ele>
        <time>2013-05-06T09:59:03Z</time>
      </trkpt>
      <trkpt lat="44.17077" lon="5.41237">
        <ele>553.577</ele>
        <time>2013-05-06T09:59:07Z</time>
      </trkpt>
      <trkpt lat="44.17042" lon="5.41299">
        <ele>553.822</ele>
        <time>2013-05-06T09:59:18Z</time>
      </trkpt>
      <trkpt lat="44.17008" lon="5.41367">
        <ele>553.504</ele>
        <time>2013-05-06T09:59:29Z</time>
      </trkpt>
      <trkpt lat="44.16983" lon="5.41426">
        <ele>554.148</ele>
        <time>2013-05-06T09:59:38Z</time>
      </trkpt>
      <trkpt lat="44.16971" lon="5.41493">
        <ele>555.586</ele>
        <time>2013-05-06T09:59:47Z</time>
      </trkpt>
      <trkpt lat="44.16961" lon="5.41578">
        <ele>558.129</ele>
        <time>2013-05-06T09:59:59Z</time>
      </trkpt>
      <trkpt lat="44.16954" lon="5.41611">
        <ele>559.654</ele>
        <time>2013-05-06T10:00:04Z</time>
      </trkpt>
      <trkpt lat="44.16941" lon="5.41672">
        <ele>561.112</ele>
        <time>2013-05-06T10:00:14Z</time>
      </trkpt>
      <trkpt lat="44.16929" lon="5.41722">
        <ele>560.807</ele>
        <time>2013-05-06T10:00:22Z</time>
      </trkpt>
      <trkpt lat="44.16928" lon="5.41728">
        <ele>561.5</ele>
        <time>2013-05-06T10:00:23Z</time>
      </trkpt>
      <trkpt lat="44.16918" lon="5.41768">
        <ele>561.518</ele>
        <time>2013-05-06T10:00:31Z</time>
      </trkpt>
      <trkpt lat="44.16897" lon="5.41802">
        <ele>561.825</ele>
        <time>2013-05-06T10:00:38Z</time>
      </trkpt>
      <trkpt lat="44.1685" lon="5.41839">
        <ele>562.283</ele>
        <time>2013-05-06T10:00:49Z</time>
      </trkpt>
      <trkpt lat="44.16805" lon="5.41874">
        <ele>563.238</ele>
        <time>2013-05-06T10:00:59Z</time>
      </trkpt>
      <trkpt lat="44.16771" lon="5.4192">
        <ele>562.29</ele>
        <time>2013-05-06T10:01:07Z</time>
      </trkpt>
      <trkpt lat="44.16754" lon="5.41968">
        <ele>561.358</ele>
        <time>2013-05-06T10:01:13Z</time>
      </trkpt>
      <trkpt lat="44.16726" lon="5.42063">
        <ele>560.1</ele>
        <time>2013-05-06T10:01:24Z</time>
      </trkpt>
      <trkpt lat="44.16714" lon="5.42134">
        <ele>560.44</ele>
        <time>2013-05-06T10:01:32Z</time>
      </trkpt>
      <trkpt lat="44.1671" lon="5.42229">
        <ele>559.488</ele>
        <time>2013-05-06T10:01:42Z</time>
      </trkpt>
      <trkpt lat="44.16705" lon="5.42318">
        <ele>559.683</ele>
        <time>2013-05-06T10:01:53Z</time>
      </trkpt>
      <trkpt lat="44.167" lon="5.42408">
        <ele>561.933</ele>
        <time>2013-05-06T10:02:05Z</time>
      </trkpt>
      <trkpt lat="44.16698" lon="5.42454">
        <ele>562.522</ele>
        <time>2013-05-06T10:02:13Z</time>
      </trkpt>
      <trkpt lat="44.16695" lon="5.42499">
        <ele>562.779</ele>
        <time>2013-05-06T10:02:21Z</time>
      </trkpt>
      <trkpt lat="44.16693" lon="5.42533">
        <ele>563.712</ele>
        <time>2013-05-06T10:02:28Z</time>
      </trkpt>
      <trkpt lat="44.16691" lon="5.4257">
        <ele>564.069</ele>
        <time>2013-05-06T10:02:36Z</time>
      </trkpt>
      <trkpt lat="44.16689" lon="5.42613">
        <ele>564.806</ele>
        <time>2013-05-06T10:02:45Z</time>
      </trkpt>
      <trkpt lat="44.16686" lon="5.42663">
        <ele>565.22</ele>
        <time>2013-05-06T10:02:54Z</time>
      </trkpt>
      <trkpt lat="44.16685" lon="5.42687">
        <ele>565.752</ele>
        <time>2013-05-06T10:02:58Z</time>
      </trkpt>
      <trkpt lat="44.16681" lon="5.42724">
        <ele>564.876</ele>
        <time>2013-05-06T10:03:04Z</time>
      </trkpt>
      <trkpt lat="44.16669" lon="5.42772">
        <ele>564.653</ele>
        <time>2013-05-06T10:03:10Z</time>
      </trkpt>
      <trkpt lat="44.16638" lon="5.42829">
        <ele>565.28</ele>
        <time>2013-05-06T10:03:18Z</time>
      </trkpt>
      <trkpt lat="44.16612" lon="5.42878">
        <ele>566.563</ele>
        <time>2013-05-06T10:03:26Z</time>
      </trkpt>
      <trkpt lat="44.16586" lon="5.42927">
        <ele>567.293</ele>
        <time>2013-05-06T10:03:34Z</time>
      </trkpt>
      <trkpt lat="44.16548" lon="5.42998">
        <ele>569.548</ele>
        <time>2013-05-06T10:03:46Z</time>
      </trkpt>
      <trkpt lat="44.16507" lon="5.43074">
        <ele>571.333</ele>
        <time>2013-05-06T10:03:59Z</time>
      </trkpt>
      <trkpt lat="44.1647" lon="5.4315">
        <ele>572.507</ele>
        <time>2013-05-06T10:04:12Z</time>
      </trkpt>
      <trkpt lat="44.16466" lon="5.43163">
        <ele>572.891</ele>
        <time>2013-05-06T10:04:14Z</time>
      </trkpt>
      <trkpt lat="44.16433" lon="5.4317">
        <ele>572.949</ele>
        <time>2013-05-06T10:04:20Z</time>
      </trkpt>
      <trkpt lat="44.16397" lon="5.43156">
        <ele>573.073</ele>
        <time>2013-05-06T10:04:28Z</time>
      </trkpt>
      <trkpt lat="44.16363" lon="5.43144">
        <ele>574.109</ele>
        <time>2013-05-06T10:04:36Z</time>
      </trkpt>
      <trkpt lat="44.16355" lon="5.43141">
        <ele>574.98</ele>
        <time>2013-05-06T10:04:38Z</time>
      </trkpt>
      <trkpt lat="44.16346" lon="5.43139">
        <ele>575.012</ele>
        <time>2013-05-06T10:04:40Z</time>
      </trkpt>
      <trkpt lat="44.163" lon="5.43145">
        <ele>575.211</ele>
        <time>2013-05-06T10:04:50Z</time>
      </trkpt>
      <trkpt lat="44.16252" lon="5.4317">
        <ele>576.643</ele>
        <time>2013-05-06T10:05:01Z</time>
      </trkpt>
      <trkpt lat="44.1619" lon="5.43208">
        <ele>577.875</ele>
        <time>2013-05-06T10:05:15Z</time>
      </trkpt>
      <trkpt lat="44.16142" lon="5.43244">
        <ele>578.884</ele>
        <time>2013-05-06T10:05:26Z</time>
      </trkpt>
      <trkpt lat="44.16083" lon="5.43288">
        <ele>580.63</ele>
        <time>2013-05-06T10:05:39Z</time>
      </trkpt>
      <trkpt lat="44.16068" lon="5.43293">
        <ele>580.507</ele>
        <time>2013-05-06T10:05:42Z</time>
      </trkpt>
      <trkpt lat="44.16042" lon="5.43293">
        <ele>582.251</ele>
        <time>2013-05-06T10:05:47Z</time>
      </trkpt>
      <trkpt lat="44.16009" lon="5.43308">
        <ele>583.067</ele>
        <time>2013-05-06T10:05:54Z</time>
      </trkpt>
      <trkpt lat="44.15992" lon="5.4332">
        <ele>584.47</ele>
        <time>2013-05-06T10:05:58Z</time>
      </trkpt>
      <trkpt lat="44.1596" lon="5.4334">
        <ele>586.257</ele>
        <time>2013-05-06T10:06:06Z</time>
      </trkpt>
      <trkpt lat="44.15913" lon="5.43354">
        <ele>588.401</ele>
        <time>2013-05-06T10:06:18Z</time>
      </trkpt>
      <trkpt lat="44.15881" lon="5.4337">
        <ele>589.993</ele>
        <time>2013-05-06T10:06:27Z</time>
      </trkpt>
      <trkpt lat="44.15867" lon="5.43394">
        <ele>590.803</ele>
        <time>2013-05-06T10:06:33Z</time>
      </trkpt>
      <trkpt lat="44.1585" lon="5.43431">
        <ele>593.85</ele>
        <time>2013-05-06T10:06:42Z</time>
      </trkpt>
      <trkpt lat="44.15823" lon="5.43457">
        <ele>596.149</ele>
        <time>2013-05-06T10:06:52Z</time>
      </trkpt>
      <trkpt lat="44.15793" lon="5.43478">
        <ele>598.201</ele>
        <time>2013-05-06T10:07:02Z</time>
      </trkpt>
      <trkpt lat="44.15766" lon="5.43486">
        <ele>600.068</ele>
        <time>2013-05-06T10:07:10Z</time>
      </trkpt>
      <trkpt lat="44.15733" lon="5.43495">
        <ele>602.251</ele>
        <time>2013-05-06T10:07:22Z</time>
      </trkpt>
      <trkpt lat="44.15708" lon="5.43504">
        <ele>603.973</ele>
        <time>2013-05-06T10:07:32Z</time>
      </trkpt>
      <trkpt lat="44.15681" lon="5.43515">
        <ele>605.593</ele>
        <time>2013-05-06T10:07:42Z</time>
      </trkpt>
      <trkpt lat="44.15651" lon="5.43523">
        <ele>606.982</ele>
        <time>2013-05-06T10:07:53Z</time>
      </trkpt>
      <trkpt lat="44.15625" lon="5.4353">
        <ele>608.004</ele>
        <time>2013-05-06T10:08:02Z</time>
      </trkpt>
      <trkpt lat="44.15601" lon="5.43557">
        <ele>608.669</ele>
        <time>2013-05-06T10:08:10Z</time>
      </trkpt>
      <trkpt lat="44.15571" lon="5.4359">
        <ele>609.284</ele>
        <time>2013-05-06T10:08:20Z</time>
      </trkpt>
      <trkpt lat="44.15567" lon="5.43591">
        <ele>609.425</ele>
        <time>2013-05-06T10:08:21Z</time>
      </trkpt>
      <trkpt lat="44.15546" lon="5.43593">
        <ele>610.062</ele>
        <time>2013-05-06T10:08:26Z</time>
      </trkpt>
      <trkpt lat="44.15493" lon="5.43575">
        <ele>610.298</ele>
        <time>2013-05-06T10:08:37Z</time>
      </trkpt>
      <trkpt lat="44.1544" lon="5.43568">
        <ele>611.685</ele>
        <time>2013-05-06T10:08:49Z</time>
      </trkpt>
      <trkpt lat="44.15396" lon="5.43564">
        <ele>613.825</ele>
        <time>2013-05-06T10:09:00Z</time>
      </trkpt>
      <trkpt lat="44.15369" lon="5.43555">
        <ele>615.021</ele>
        <time>2013-05-06T10:09:07Z</time>
      </trkpt>
      <trkpt lat="44.15332" lon="5.43516">
        <ele>614.36</ele>
        <time>2013-05-06T10:09:17Z</time>
      </trkpt>
      <trkpt lat="44.15292" lon="5.43467">
        <ele>615.163</ele>
        <time>2013-05-06T10:09:28Z</time>
      </trkpt>
      <trkpt lat="44.15287" lon="5.43457">
        <ele>615.155</ele>
        <time>2013-05-06T10:09:30Z</time>
      </trkpt>
      <trkpt lat="44.15278" lon="5.43421">
        <ele>616.355</ele>
        <time>2013-05-06T10:09:36Z</time>
      </trkpt>
      <trkpt lat="44.1528" lon="5.43357">
        <ele>617.12</ele>
        <time>2013-05-06T10:09:46Z</time>
      </trkpt>
      <trkpt lat="44.15284" lon="5.43285">
        <ele>618.201</ele>
        <time>2013-05-06T10:09:58Z</time>
      </trkpt>
      <trkpt lat="44.15288" lon="5.43215">
        <ele>619.371</ele>
        <time>2013-05-06T10:10:10Z</time>
      </trkpt>
      <trkpt lat="44.15289" lon="5.43198">
        <ele>620.601</ele>
        <time>2013-05-06T10:10:13Z</time>
      </trkpt>
      <trkpt lat="44.15293" lon="5.43138">
        <ele>622.792</ele>
        <time>2013-05-06T10:10:24Z</time>
      </trkpt>
      <trkpt lat="44.15286" lon="5.43081">
        <ele>623.904</ele>
        <time>2013-05-06T10:10:35Z</time>
      </trkpt>
      <trkpt lat="44.15263" lon="5.43037">
        <ele>626.191</ele>
        <time>2013-05-06T10:10:45Z</time>
      </trkpt>
      <trkpt lat="44.15231" lon="5.42999">
        <ele>628.691</ele>
        <time>2013-05-06T10:10:57Z</time>
      </trkpt>
      <trkpt lat="44.15199" lon="5.42964">
        <ele>629.403</ele>
        <time>2013-05-06T10:11:08Z</time>
      </trkpt>
      <trkpt lat="44.15172" lon="5.42936">
        <ele>632.441</ele>
        <time>2013-05-06T10:11:17Z</time>
      </trkpt>
      <trkpt lat="44.15132" lon="5.42892">
        <ele>634.649</ele>
        <time>2013-05-06T10:11:31Z</time>
      </trkpt>
      <trkpt lat="44.151" lon="5.42858">
        <ele>636.494</ele>
        <time>2013-05-06T10:11:42Z</time>
      </trkpt>
      <trkpt lat="44.15067" lon="5.42841">
        <ele>638.109</ele>
        <time>2013-05-06T10:11:52Z</time>
      </trkpt>
      <trkpt lat="44.15031" lon="5.4283">
        <ele>639.684</ele>
        <time>2013-05-06T10:12:02Z</time>
      </trkpt>
      <trkpt lat="44.14997" lon="5.4281">
        <ele>640.528</ele>
        <time>2013-05-06T10:12:13Z</time>
      </trkpt>
      <trkpt lat="44.14979" lon="5.42778">
        <ele>641.146</ele>
        <time>2013-05-06T10:12:21Z</time>
      </trkpt>
      <trkpt lat="44.14976" lon="5.42743">
        <ele>641.308</ele>
        <time>2013-05-06T10:12:28Z</time>
      </trkpt>
      <trkpt lat="44.14986" lon="5.42696">
        <ele>644.298</ele>
        <time>2013-05-06T10:12:38Z</time>
      </trkpt>
      <trkpt lat="44.14989" lon="5.42687">
        <ele>644.997</ele>
        <time>2013-05-06T10:12:40Z</time>
      </trkpt>
      <trkpt lat="44.15004" lon="5.42627">
        <ele>646.216</ele>
        <time>2013-05-06T10:12:53Z</time>
      </trkpt>
      <trkpt lat="44.15016" lon="5.42575">
        <ele>649.078</ele>
        <time>2013-05-06T10:13:04Z</time>
      </trkpt>
      <trkpt lat="44.15018" lon="5.42525">
        <ele>649.471</ele>
        <time>2013-05-06T10:13:14Z</time>
      </trkpt>
      <trkpt lat="44.15013" lon="5.42487">
        <ele>649.99</ele>
        <time>2013-05-06T10:13:22Z</time>
      </trkpt>
      <trkpt lat="44.15001" lon="5.4244">
        <ele>653</ele>
        <time>2013-05-06T10:13:32Z</time>
      </trkpt>
      <trkpt lat="44.14981" lon="5.42392">
        <ele>654.508</ele>
        <time>2013-05-06T10:13:43Z</time>
      </trkpt>
      <trkpt lat="44.14963" lon="5.42355">
        <ele>655.786</ele>
        <time>2013-05-06T10:13:52Z</time>
      </trkpt>
      <trkpt lat="44.14933" lon="5.42326">
        <ele>657.619</ele>
        <time>2013-05-06T10:14:04Z</time>
      </trkpt>
      <trkpt lat="44.14901" lon="5.42292">
        <ele>659.422</ele>
        <time>2013-05-06T10:14:14Z</time>
      </trkpt>
      <trkpt lat="44.14888" lon="5.42275">
        <ele>659.561</ele>
        <time>2013-05-06T10:14:21Z</time>
      </trkpt>
      <trkpt lat="44.14879" lon="5.42264">
        <ele>659.965</ele>
        <time>2013-05-06T10:14:27Z</time>
      </trkpt>
      <trkpt lat="44.14874" lon="5.42257">
        <ele>659.945</ele>
        <time>2013-05-06T10:14:32Z</time>
      </trkpt>
      <trkpt lat="44.14868" lon="5.4225">
        <ele>660.282</ele>
        <time>2013-05-06T10:14:36Z</time>
      </trkpt>
      <trkpt lat="44.14859" lon="5.42239">
        <ele>660.509</ele>
        <time>2013-05-06T10:14:41Z</time>
      </trkpt>
      <trkpt lat="44.1484" lon="5.42213">
        <ele>660.628</ele>
        <time>2013-05-06T10:14:49Z</time>
      </trkpt>
      <trkpt lat="44.14813" lon="5.4218">
        <ele>663.075</ele>
        <time>2013-05-06T10:14:59Z</time>
      </trkpt>
      <trkpt lat="44.14796" lon="5.42148">
        <ele>664.259</ele>
        <time>2013-05-06T10:15:07Z</time>
      </trkpt>
      <trkpt lat="44.14794" lon="5.42144">
        <ele>664.445</ele>
        <time>2013-05-06T10:15:08Z</time>
      </trkpt>
      <trkpt lat="44.1477" lon="5.4211">
        <ele>665.879</ele>
        <time>2013-05-06T10:15:18Z</time>
      </trkpt>
      <trkpt lat="44.14743" lon="5.42095">
        <ele>666.473</ele>
        <time>2013-05-06T10:15:26Z</time>
      </trkpt>
      <trkpt lat="44.1472" lon="5.42069">
        <ele>668.361</ele>
        <time>2013-05-06T10:15:34Z</time>
      </trkpt>
      <trkpt lat="44.14698" lon="5.42043">
        <ele>670.166</ele>
        <time>2013-05-06T10:15:42Z</time>
      </trkpt>
      <trkpt lat="44.14672" lon="5.42027">
        <ele>671.068</ele>
        <time>2013-05-06T10:15:50Z</time>
      </trkpt>
      <trkpt lat="44.14631" lon="5.42016">
        <ele>670.962</ele>
        <time>2013-05-06T10:16:01Z</time>
      </trkpt>
      <trkpt lat="44.14584" lon="5.42004">
        <ele>671.737</ele>
        <time>2013-05-06T10:16:14Z</time>
      </trkpt>
      <trkpt lat="44.14559" lon="5.42009">
        <ele>674.629</ele>
        <time>2013-05-06T10:16:21Z</time>
      </trkpt>
      <trkpt lat="44.14514" lon="5.4202">
        <ele>675.8</ele>
        <time>2013-05-06T10:16:33Z</time>
      </trkpt>
      <trkpt lat="44.14488" lon="5.42048">
        <ele>676.771</ele>
        <time>2013-05-06T10:16:41Z</time>
      </trkpt>
      <trkpt lat="44.14459" lon="5.42057">
        <ele>677.55</ele>
        <time>2013-05-06T10:16:49Z</time>
      </trkpt>
      <trkpt lat="44.14422" lon="5.42053">
        <ele>679.197</ele>
        <time>2013-05-06T10:16:59Z</time>
      </trkpt>
      <trkpt lat="44.14375" lon="5.42038">
        <ele>680.289</ele>
        <time>2013-05-06T10:17:12Z</time>
      </trkpt>
      <trkpt lat="44.14342" lon="5.42021">
        <ele>683.444</ele>
        <time>2013-05-06T10:17:22Z</time>
      </trkpt>
      <trkpt lat="44.14314" lon="5.42007">
        <ele>685.217</ele>
        <time>2013-05-06T10:17:31Z</time>
      </trkpt>
      <trkpt lat="44.14293" lon="5.42006">
        <ele>686.906</ele>
        <time>2013-05-06T10:17:38Z</time>
      </trkpt>
      <trkpt lat="44.14264" lon="5.42012">
        <ele>687.526</ele>
        <time>2013-05-06T10:17:46Z</time>
      </trkpt>
      <trkpt lat="44.14226" lon="5.4202">
        <ele>688.958</ele>
        <time>2013-05-06T10:17:57Z</time>
      </trkpt>
      <trkpt lat="44.14196" lon="5.4201">
        <ele>690.51</ele>
        <time>2013-05-06T10:18:06Z</time>
      </trkpt>
      <trkpt lat="44.14167" lon="5.41988">
        <ele>692.78</ele>
        <time>2013-05-06T10:18:16Z</time>
      </trkpt>
      <trkpt lat="44.14139" lon="5.41951">
        <ele>694.708</ele>
        <time>2013-05-06T10:18:28Z</time>
      </trkpt>
      <trkpt lat="44.14124" lon="5.4193">
        <ele>693.621</ele>
        <time>2013-05-06T10:18:35Z</time>
      </trkpt>
      <trkpt lat="44.1412" lon="5.41924">
        <ele>698.197</ele>
        <time>2013-05-06T10:18:37Z</time>
      </trkpt>
      <trkpt lat="44.14099" lon="5.41899">
        <ele>696.643</ele>
        <time>2013-05-06T10:18:46Z</time>
      </trkpt>
      <trkpt lat="44.14079" lon="5.41879">
        <ele>699.085</ele>
        <time>2013-05-06T10:18:55Z</time>
      </trkpt>
      <trkpt lat="44.14059" lon="5.41871">
        <ele>700.154</ele>
        <time>2013-05-06T10:19:03Z</time>
      </trkpt>
      <trkpt lat="44.14055" lon="5.41872">
        <ele>699.359</ele>
        <time>2013-05-06T10:19:04Z</time>
      </trkpt>
      <trkpt lat="44.14033" lon="5.41877">
        <ele>700.244</ele>
        <time>2013-05-06T10:19:09Z</time>
      </trkpt>
      <trkpt lat="44.14001" lon="5.41883">
        <ele>703.32</ele>
        <time>2013-05-06T10:19:19Z</time>
      </trkpt>
      <trkpt lat="44.13998" lon="5.41883">
        <ele>703.502</ele>
        <time>2013-05-06T10:19:20Z</time>
      </trkpt>
      <trkpt lat="44.13969" lon="5.41879">
        <ele>705.043</ele>
        <time>2013-05-06T10:19:29Z</time>
      </trkpt>
      <trkpt lat="44.13948" lon="5.41865">
        <ele>706.682</ele>
        <time>2013-05-06T10:19:37Z</time>
      </trkpt>
      <trkpt lat="44.13929" lon="5.41851">
        <ele>707.9</ele>
        <time>2013-05-06T10:19:44Z</time>
      </trkpt>
      <trkpt lat="44.13901" lon="5.41837">
        <ele>708.969</ele>
        <time>2013-05-06T10:19:53Z</time>
      </trkpt>
      <trkpt lat="44.13881" lon="5.41847">
        <ele>710.434</ele>
        <time>2013-05-06T10:20:00Z</time>
      </trkpt>
      <trkpt lat="44.13876" lon="5.41851">
        <ele>711.107</ele>
        <time>2013-05-06T10:20:02Z</time>
      </trkpt>
      <trkpt lat="44.13865" lon="5.41871">
        <ele>711.508</ele>
        <time>2013-05-06T10:20:08Z</time>
      </trkpt>
      <trkpt lat="44.13852" lon="5.41907">
        <ele>712.443</ele>
        <time>2013-05-06T10:20:17Z</time>
      </trkpt>
      <trkpt lat="44.13852" lon="5.41951">
        <ele>714.268</ele>
        <time>2013-05-06T10:20:27Z</time>
      </trkpt>
      <trkpt lat="44.1384" lon="5.41981">
        <ele>715.463</ele>
        <time>2013-05-06T10:20:35Z</time>
      </trkpt>
      <trkpt lat="44.13826" lon="5.41991">
        <ele>717.028</ele>
        <time>2013-05-06T10:20:41Z</time>
      </trkpt>
      <trkpt lat="44.13805" lon="5.41989">
        <ele>718.365</ele>
        <time>2013-05-06T10:20:47Z</time>
      </trkpt>
      <trkpt lat="44.13776" lon="5.41988">
        <ele>720.152</ele>
        <time>2013-05-06T10:20:56Z</time>
      </trkpt>
      <trkpt lat="44.13758" lon="5.41987">
        <ele>721.082</ele>
        <time>2013-05-06T10:21:02Z</time>
      </trkpt>
      <trkpt lat="44.13729" lon="5.41995">
        <ele>722.287</ele>
        <time>2013-05-06T10:21:12Z</time>
      </trkpt>
      <trkpt lat="44.13707" lon="5.42004">
        <ele>724.065</ele>
        <time>2013-05-06T10:21:20Z</time>
      </trkpt>
      <trkpt lat="44.13689" lon="5.4201">
        <ele>725.103</ele>
        <time>2013-05-06T10:21:27Z</time>
      </trkpt>
      <trkpt lat="44.13656" lon="5.42014">
        <ele>726.744</ele>
        <time>2013-05-06T10:21:38Z</time>
      </trkpt>
      <trkpt lat="44.13619" lon="5.42016">
        <ele>727.715</ele>
        <time>2013-05-06T10:21:50Z</time>
      </trkpt>
      <trkpt lat="44.13577" lon="5.42019">
        <ele>729.595</ele>
        <time>2013-05-06T10:22:04Z</time>
      </trkpt>
      <trkpt lat="44.13542" lon="5.42021">
        <ele>731.406</ele>
        <time>2013-05-06T10:22:15Z</time>
      </trkpt>
      <trkpt lat="44.13509" lon="5.42024">
        <ele>733.516</ele>
        <time>2013-05-06T10:22:25Z</time>
      </trkpt>
      <trkpt lat="44.13477" lon="5.42026">
        <ele>734.821</ele>
        <time>2013-05-06T10:22:36Z</time>
      </trkpt>
      <trkpt lat="44.13456" lon="5.42028">
        <ele>735.124</ele>
        <time>2013-05-06T10:22:43Z</time>
      </trkpt>
      <trkpt lat="44.13425" lon="5.42028">
        <ele>737.808</ele>
        <time>2013-05-06T10:22:53Z</time>
      </trkpt>
      <trkpt lat="44.13391" lon="5.42021">
        <ele>740.05</ele>
        <time>2013-05-06T10:23:04Z</time>
      </trkpt>
      <trkpt lat="44.13367" lon="5.42017">
        <ele>742.129</ele>
        <time>2013-05-06T10:23:12Z</time>
      </trkpt>
      <trkpt lat="44.13344" lon="5.42014">
        <ele>742.157</ele>
        <time>2013-05-06T10:23:19Z</time>
      </trkpt>
      <trkpt lat="44.13325" lon="5.42029">
        <ele>742.576</ele>
        <time>2013-05-06T10:23:26Z</time>
      </trkpt>
      <trkpt lat="44.13311" lon="5.42053">
        <ele>744.533</ele>
        <time>2013-05-06T10:23:34Z</time>
      </trkpt>
      <trkpt lat="44.13297" lon="5.42086">
        <ele>746.102</ele>
        <time>2013-05-06T10:23:43Z</time>
      </trkpt>
      <trkpt lat="44.13285" lon="5.42136">
        <ele>747.695</ele>
        <time>2013-05-06T10:23:55Z</time>
      </trkpt>
      <trkpt lat="44.13278" lon="5.42187">
        <ele>749.947</ele>
        <time>2013-05-06T10:24:07Z</time>
      </trkpt>
      <trkpt lat="44.13271" lon="5.42227">
        <ele>750.457</ele>
        <time>2013-05-06T10:24:17Z</time>
      </trkpt>
      <trkpt lat="44.13261" lon="5.42266">
        <ele>752.668</ele>
        <time>2013-05-06T10:24:27Z</time>
      </trkpt>
      <trkpt lat="44.13252" lon="5.42301">
        <ele>753.848</ele>
        <time>2013-05-06T10:24:36Z</time>
      </trkpt>
      <trkpt lat="44.13238" lon="5.42326">
        <ele>754.977</ele>
        <time>2013-05-06T10:24:45Z</time>
      </trkpt>
      <trkpt lat="44.13227" lon="5.42343">
        <ele>755.99</ele>
        <time>2013-05-06T10:24:54Z</time>
      </trkpt>
      <trkpt lat="44.1321" lon="5.42372">
        <ele>757.364</ele>
        <time>2013-05-06T10:25:05Z</time>
      </trkpt>
      <trkpt lat="44.13191" lon="5.42404">
        <ele>759.438</ele>
        <time>2013-05-06T10:25:16Z</time>
      </trkpt>
      <trkpt lat="44.13181" lon="5.42427">
        <ele>760.204</ele>
        <time>2013-05-06T10:25:23Z</time>
      </trkpt>
      <trkpt lat="44.13178" lon="5.42453">
        <ele>761.573</ele>
        <time>2013-05-06T10:25:30Z</time>
      </trkpt>
      <trkpt lat="44.13187" lon="5.42471">
        <ele>762.122</ele>
        <time>2013-05-06T10:25:36Z</time>
      </trkpt>
      <trkpt lat="44.132" lon="5.4248">
        <ele>762.122</ele>
        <time>2013-05-06T10:25:42Z</time>
      </trkpt>
      <trkpt lat="44.13225" lon="5.42474">
        <ele>762.414</ele>
        <time>2013-05-06T10:25:50Z</time>
      </trkpt>
      <trkpt lat="44.13259" lon="5.42468">
        <ele>762.832</ele>
        <time>2013-05-06T10:26:01Z</time>
      </trkpt>
      <trkpt lat="44.13278" lon="5.42471">
        <ele>763.484</ele>
        <time>2013-05-06T10:26:08Z</time>
      </trkpt>
      <trkpt lat="44.13298" lon="5.42491">
        <ele>764.554</ele>
        <time>2013-05-06T10:26:16Z</time>
      </trkpt>
      <trkpt lat="44.13302" lon="5.42523">
        <ele>765.468</ele>
        <time>2013-05-06T10:26:24Z</time>
      </trkpt>
      <trkpt lat="44.13293" lon="5.42554">
        <ele>766.973</ele>
        <time>2013-05-06T10:26:32Z</time>
      </trkpt>
      <trkpt lat="44.13272" lon="5.4258">
        <ele>768.17</ele>
        <time>2013-05-06T10:26:41Z</time>
      </trkpt>
      <trkpt lat="44.13255" lon="5.42604">
        <ele>768.519</ele>
        <time>2013-05-06T10:26:48Z</time>
      </trkpt>
      <trkpt lat="44.13252" lon="5.42653">
        <ele>768.868</ele>
        <time>2013-05-06T10:26:58Z</time>
      </trkpt>
      <trkpt lat="44.13245" lon="5.42695">
        <ele>770.078</ele>
        <time>2013-05-06T10:27:07Z</time>
      </trkpt>
      <trkpt lat="44.13229" lon="5.42734">
        <ele>770.834</ele>
        <time>2013-05-06T10:27:17Z</time>
      </trkpt>
      <trkpt lat="44.13211" lon="5.42747">
        <ele>771.578</ele>
        <time>2013-05-06T10:27:24Z</time>
      </trkpt>
      <trkpt lat="44.13181" lon="5.42749">
        <ele>772.7</ele>
        <time>2013-05-06T10:27:34Z</time>
      </trkpt>
      <trkpt lat="44.13148" lon="5.42748">
        <ele>774.067</ele>
        <time>2013-05-06T10:27:45Z</time>
      </trkpt>
      <trkpt lat="44.13132" lon="5.42745">
        <ele>774.828</ele>
        <time>2013-05-06T10:27:52Z</time>
      </trkpt>
      <trkpt lat="44.13118" lon="5.42743">
        <ele>775.319</ele>
        <time>2013-05-06T10:28:00Z</time>
      </trkpt>
      <trkpt lat="44.13098" lon="5.42737">
        <ele>775.699</ele>
        <time>2013-05-06T10:28:08Z</time>
      </trkpt>
      <trkpt lat="44.1308" lon="5.42728">
        <ele>776.737</ele>
        <time>2013-05-06T10:28:15Z</time>
      </trkpt>
      <trkpt lat="44.13061" lon="5.42716">
        <ele>777.818</ele>
        <time>2013-05-06T10:28:23Z</time>
      </trkpt>
      <trkpt lat="44.13045" lon="5.42706">
        <ele>778.661</ele>
        <time>2013-05-06T10:28:30Z</time>
      </trkpt>
      <trkpt lat="44.13041" lon="5.42703">
        <ele>778.828</ele>
        <time>2013-05-06T10:28:37Z</time>
      </trkpt>
      <trkpt lat="44.13009" lon="5.4268">
        <ele>779.488</ele>
        <time>2013-05-06T10:28:44Z</time>
      </trkpt>
      <trkpt lat="44.12987" lon="5.42666">
        <ele>780.894</ele>
        <time>2013-05-06T10:28:51Z</time>
      </trkpt>
      <trkpt lat="44.12956" lon="5.42657">
        <ele>782.904</ele>
        <time>2013-05-06T10:29:01Z</time>
      </trkpt>
      <trkpt lat="44.1294" lon="5.42661">
        <ele>782.747</ele>
        <time>2013-05-06T10:29:06Z</time>
      </trkpt>
      <trkpt lat="44.1292" lon="5.42683">
        <ele>784.332</ele>
        <time>2013-05-06T10:29:13Z</time>
      </trkpt>
      <trkpt lat="44.12916" lon="5.4271">
        <ele>786.222</ele>
        <time>2013-05-06T10:29:20Z</time>
      </trkpt>
      <trkpt lat="44.12927" lon="5.42737">
        <ele>784.052</ele>
        <time>2013-05-06T10:29:26Z</time>
      </trkpt>
      <trkpt lat="44.12935" lon="5.42764">
        <ele>784.073</ele>
        <time>2013-05-06T10:29:32Z</time>
      </trkpt>
      <trkpt lat="44.12936" lon="5.42766">
        <ele>784.09</ele>
        <time>2013-05-06T10:29:37Z</time>
      </trkpt>
      <trkpt lat="44.12936" lon="5.42766">
        <ele>784.483</ele>
        <time>2013-05-06T10:29:44Z</time>
      </trkpt>
      <trkpt lat="44.12936" lon="5.42766">
        <ele>785.534</ele>
        <time>2013-05-06T10:34:49Z</time>
      </trkpt>
      <trkpt lat="44.12936" lon="5.42766">
        <ele>785.201</ele>
        <time>2013-05-06T10:34:59Z</time>
      </trkpt>
      <trkpt lat="44.12936" lon="5.42766">
        <ele>786.398</ele>
        <time>2013-05-06T10:35:14Z</time>
      </trkpt>
      <trkpt lat="44.12936" lon="5.42766">
        <ele>786.649</ele>
        <time>2013-05-06T10:35:22Z</time>
      </trkpt>
      <trkpt lat="44.12932" lon="5.42793">
        <ele>784.587</ele>
        <time>2013-05-06T10:35:30Z</time>
      </trkpt>
      <trkpt lat="44.1292" lon="5.428">
        <ele>785.189</ele>
        <time>2013-05-06T10:35:35Z</time>
      </trkpt>
      <trkpt lat="44.12891" lon="5.42786">
        <ele>784.902</ele>
        <time>2013-05-06T10:35:44Z</time>
      </trkpt>
      <trkpt lat="44.12887" lon="5.42783">
        <ele>785.18</ele>
        <time>2013-05-06T10:35:45Z</time>
      </trkpt>
      <trkpt lat="44.12849" lon="5.42756">
        <ele>784.656</ele>
        <time>2013-05-06T10:35:54Z</time>
      </trkpt>
      <trkpt lat="44.12818" lon="5.42721">
        <ele>783.877</ele>
        <time>2013-05-06T10:36:02Z</time>
      </trkpt>
      <trkpt lat="44.12794" lon="5.42712">
        <ele>784.003</ele>
        <time>2013-05-06T10:36:07Z</time>
      </trkpt>
      <trkpt lat="44.12744" lon="5.42695">
        <ele>782.424</ele>
        <time>2013-05-06T10:36:16Z</time>
      </trkpt>
      <trkpt lat="44.12692" lon="5.42673">
        <ele>781.213</ele>
        <time>2013-05-06T10:36:25Z</time>
      </trkpt>
      <trkpt lat="44.12638" lon="5.42651">
        <ele>780.191</ele>
        <time>2013-05-06T10:36:34Z</time>
      </trkpt>
      <trkpt lat="44.12567" lon="5.42621">
        <ele>778.902</ele>
        <time>2013-05-06T10:36:45Z</time>
      </trkpt>
      <trkpt lat="44.12499" lon="5.42556">
        <ele>777.495</ele>
        <time>2013-05-06T10:36:57Z</time>
      </trkpt>
      <trkpt lat="44.12488" lon="5.42543">
        <ele>776.47</ele>
        <time>2013-05-06T10:36:59Z</time>
      </trkpt>
      <trkpt lat="44.12434" lon="5.42491">
        <ele>774.396</ele>
        <time>2013-05-06T10:37:08Z</time>
      </trkpt>
      <trkpt lat="44.12402" lon="5.42447">
        <ele>772.947</ele>
        <time>2013-05-06T10:37:14Z</time>
      </trkpt>
      <trkpt lat="44.12369" lon="5.42391">
        <ele>770.905</ele>
        <time>2013-05-06T10:37:21Z</time>
      </trkpt>
      <trkpt lat="44.12328" lon="5.42313">
        <ele>770.128</ele>
        <time>2013-05-06T10:37:30Z</time>
      </trkpt>
      <trkpt lat="44.12296" lon="5.42291">
        <ele>771.242</ele>
        <time>2013-05-06T10:37:35Z</time>
      </trkpt>
      <trkpt lat="44.12285" lon="5.42291">
        <ele>771.198</ele>
        <time>2013-05-06T10:37:38Z</time>
      </trkpt>
      <trkpt lat="44.12187" lon="5.4232">
        <ele>771.04</ele>
        <time>2013-05-06T10:37:49Z</time>
      </trkpt>
      <trkpt lat="44.12109" lon="5.42337">
        <ele>768.592</ele>
        <time>2013-05-06T10:37:59Z</time>
      </trkpt>
      <trkpt lat="44.12101" lon="5.42336">
        <ele>769.123</ele>
        <time>2013-05-06T10:38:00Z</time>
      </trkpt>
      <trkpt lat="44.12049" lon="5.42318">
        <ele>768.725</ele>
        <time>2013-05-06T10:38:07Z</time>
      </trkpt>
      <trkpt lat="44.11977" lon="5.42289">
        <ele>769.003</ele>
        <time>2013-05-06T10:38:17Z</time>
      </trkpt>
      <trkpt lat="44.11955" lon="5.42283">
        <ele>768.932</ele>
        <time>2013-05-06T10:38:20Z</time>
      </trkpt>
      <trkpt lat="44.11931" lon="5.42263">
        <ele>769.294</ele>
        <time>2013-05-06T10:38:24Z</time>
      </trkpt>
      <trkpt lat="44.11888" lon="5.42213">
        <ele>769</ele>
        <time>2013-05-06T10:38:32Z</time>
      </trkpt>
      <trkpt lat="44.11798" lon="5.42139">
        <ele>768.999</ele>
        <time>2013-05-06T10:38:47Z</time>
      </trkpt>
      <trkpt lat="44.1175" lon="5.42108">
        <ele>767.949</ele>
        <time>2013-05-06T10:38:54Z</time>
      </trkpt>
      <trkpt lat="44.11737" lon="5.421">
        <ele>768.449</ele>
        <time>2013-05-06T10:38:56Z</time>
      </trkpt>
      <trkpt lat="44.11713" lon="5.42065">
        <ele>769.178</ele>
        <time>2013-05-06T10:39:01Z</time>
      </trkpt>
      <trkpt lat="44.11699" lon="5.4204">
        <ele>769.205</ele>
        <time>2013-05-06T10:39:04Z</time>
      </trkpt>
      <trkpt lat="44.11644" lon="5.41987">
        <ele>767.826</ele>
        <time>2013-05-06T10:39:13Z</time>
      </trkpt>
      <trkpt lat="44.11613" lon="5.41958">
        <ele>767.756</ele>
        <time>2013-05-06T10:39:18Z</time>
      </trkpt>
      <trkpt lat="44.11596" lon="5.41927">
        <ele>767.138</ele>
        <time>2013-05-06T10:39:22Z</time>
      </trkpt>
      <trkpt lat="44.11578" lon="5.41893">
        <ele>767.032</ele>
        <time>2013-05-06T10:39:26Z</time>
      </trkpt>
      <trkpt lat="44.11537" lon="5.41847">
        <ele>767.337</ele>
        <time>2013-05-06T10:39:33Z</time>
      </trkpt>
      <trkpt lat="44.11468" lon="5.41767">
        <ele>767.207</ele>
        <time>2013-05-06T10:39:45Z</time>
      </trkpt>
      <trkpt lat="44.11392" lon="5.41693">
        <ele>767.017</ele>
        <time>2013-05-06T10:39:57Z</time>
      </trkpt>
      <trkpt lat="44.1131" lon="5.41631">
        <ele>766.501</ele>
        <time>2013-05-06T10:40:09Z</time>
      </trkpt>
      <trkpt lat="44.11223" lon="5.41582">
        <ele>765.593</ele>
        <time>2013-05-06T10:40:21Z</time>
      </trkpt>
      <trkpt lat="44.11149" lon="5.4155">
        <ele>766.468</ele>
        <time>2013-05-06T10:40:31Z</time>
      </trkpt>
      <trkpt lat="44.11064" lon="5.41527">
        <ele>766.378</ele>
        <time>2013-05-06T10:40:42Z</time>
      </trkpt>
      <trkpt lat="44.1104" lon="5.41525">
        <ele>764.492</ele>
        <time>2013-05-06T10:40:45Z</time>
      </trkpt>
      <trkpt lat="44.11002" lon="5.41506">
        <ele>765.746</ele>
        <time>2013-05-06T10:40:50Z</time>
      </trkpt>
      <trkpt lat="44.10939" lon="5.41478">
        <ele>765.218</ele>
        <time>2013-05-06T10:40:58Z</time>
      </trkpt>
      <trkpt lat="44.10849" lon="5.41451">
        <ele>764.299</ele>
        <time>2013-05-06T10:41:09Z</time>
      </trkpt>
      <trkpt lat="44.10762" lon="5.41438">
        <ele>763.874</ele>
        <time>2013-05-06T10:41:20Z</time>
      </trkpt>
      <trkpt lat="44.10733" lon="5.41417">
        <ele>764.098</ele>
        <time>2013-05-06T10:41:24Z</time>
      </trkpt>
      <trkpt lat="44.10654" lon="5.41353">
        <ele>764.162</ele>
        <time>2013-05-06T10:41:35Z</time>
      </trkpt>
      <trkpt lat="44.10585" lon="5.41319">
        <ele>763.815</ele>
        <time>2013-05-06T10:41:44Z</time>
      </trkpt>
      <trkpt lat="44.10492" lon="5.41281">
        <ele>764.785</ele>
        <time>2013-05-06T10:41:56Z</time>
      </trkpt>
      <trkpt lat="44.10414" lon="5.41258">
        <ele>764.645</ele>
        <time>2013-05-06T10:42:06Z</time>
      </trkpt>
      <trkpt lat="44.10344" lon="5.4123">
        <ele>764.24</ele>
        <time>2013-05-06T10:42:15Z</time>
      </trkpt>
      <trkpt lat="44.10265" lon="5.41209">
        <ele>763.912</ele>
        <time>2013-05-06T10:42:25Z</time>
      </trkpt>
      <trkpt lat="44.10189" lon="5.41174">
        <ele>763.407</ele>
        <time>2013-05-06T10:42:35Z</time>
      </trkpt>
      <trkpt lat="44.10109" lon="5.41122">
        <ele>763.121</ele>
        <time>2013-05-06T10:42:46Z</time>
      </trkpt>
      <trkpt lat="44.10057" lon="5.41089">
        <ele>763.053</ele>
        <time>2013-05-06T10:42:53Z</time>
      </trkpt>
      <trkpt lat="44.09981" lon="5.41051">
        <ele>761.833</ele>
        <time>2013-05-06T10:43:03Z</time>
      </trkpt>
      <trkpt lat="44.09903" lon="5.41009">
        <ele>762.113</ele>
        <time>2013-05-06T10:43:13Z</time>
      </trkpt>
      <trkpt lat="44.09833" lon="5.40968">
        <ele>761.363</ele>
        <time>2013-05-06T10:43:22Z</time>
      </trkpt>
      <trkpt lat="44.09803" lon="5.40944">
        <ele>761.09</ele>
        <time>2013-05-06T10:43:26Z</time>
      </trkpt>
      <trkpt lat="44.09746" lon="5.40918">
        <ele>760.688</ele>
        <time>2013-05-06T10:43:33Z</time>
      </trkpt>
      <trkpt lat="44.09669" lon="5.40872">
        <ele>760.442</ele>
        <time>2013-05-06T10:43:43Z</time>
      </trkpt>
      <trkpt lat="44.09611" lon="5.40858">
        <ele>760.172</ele>
        <time>2013-05-06T10:43:50Z</time>
      </trkpt>
      <trkpt lat="44.09553" lon="5.40849">
        <ele>760.091</ele>
        <time>2013-05-06T10:43:57Z</time>
      </trkpt>
      <trkpt lat="44.09489" lon="5.40838">
        <ele>760.623</ele>
        <time>2013-05-06T10:44:05Z</time>
      </trkpt>
      <trkpt lat="44.0942" lon="5.40831">
        <ele>760.271</ele>
        <time>2013-05-06T10:44:14Z</time>
      </trkpt>
      <trkpt lat="44.0938" lon="5.40819">
        <ele>760.305</ele>
        <time>2013-05-06T10:44:21Z</time>
      </trkpt>
      <trkpt lat="44.09318" lon="5.40828">
        <ele>762.148</ele>
        <time>2013-05-06T10:44:28Z</time>
      </trkpt>
      <trkpt lat="44.09288" lon="5.40828">
        <ele>764.676</ele>
        <time>2013-05-06T10:44:34Z</time>
      </trkpt>
      <trkpt lat="44.09265" lon="5.4079">
        <ele>764.249</ele>
        <time>2013-05-06T10:44:38Z</time>
      </trkpt>
      <trkpt lat="44.09266" lon="5.40788">
        <ele>763.477</ele>
        <time>2013-05-06T10:44:39Z</time>
      </trkpt>
      <trkpt lat="44.09279" lon="5.40769">
        <ele>763.737</ele>
        <time>2013-05-06T10:44:47Z</time>
      </trkpt>
      <trkpt lat="44.09279" lon="5.40769">
        <ele>764.04</ele>
        <time>2013-05-06T10:44:54Z</time>
      </trkpt>
      <trkpt lat="44.09279" lon="5.40769">
        <ele>763.759</ele>
        <time>2013-05-06T10:45:03Z</time>
      </trkpt>
    </trkseg>
  </trk>
</gpx>